Observation data for Lake Alan Henry on 06/20/2019      Previous  Date  Next       Current Mesonet Observations  Soil Data  Daily Summary Page  Observations in Plain Language
KAHS 200500Z 10006KT 25/21 A2981 RMK A01 T02490207  RH  078%=      5-min Rain = 0
KAHS 200501Z 11006KT 25/21 A2981 RMK A01 T02490207  RH  077%=      5-min Rain = 0
KAHS 200502Z 10007KT 25/21 A2981 RMK A01 T02490207  RH  077%=      5-min Rain = 0
KAHS 200503Z 11006KT 25/21 A2981 RMK A01 T02490207  RH  077%=      5-min Rain = 0
KAHS 200504Z 10006KT 25/21 A2981 RMK A01 T02490207  RH  077%=      5-min Rain = 0
KAHS 200505Z 10005KT 25/21 A2981 RMK A01 T02490206  RH  077%=      5-min Rain = 0
KAHS 200506Z 10006KT 25/21 A2981 RMK A01 T02480207  RH  078%=      5-min Rain = 0
KAHS 200507Z 10006KT 25/21 A2981 RMK A01 T02470206  RH  078%=      5-min Rain = 0
KAHS 200508Z 10005KT 25/21 A2981 RMK A01 T02470206  RH  078%=      5-min Rain = 0
KAHS 200509Z 10006KT 25/21 A2981 RMK A01 T02470206  RH  078%=      5-min Rain = 0
KAHS 200510Z 09005KT 25/21 A2981 RMK A01 T02480206  RH  077%=      5-min Rain = 0
KAHS 200511Z 10005KT 25/21 A2981 RMK A01 T02480206  RH  078%=      5-min Rain = 0
KAHS 200512Z 10004KT 25/21 A2981 RMK A01 T02470206  RH  078%=      5-min Rain = 0
KAHS 200513Z 11005KT 25/21 A2981 RMK A01 T02470206  RH  078%=      5-min Rain = 0
KAHS 200514Z 11005KT 25/21 A2981 RMK A01 T02460206  RH  079%=      5-min Rain = 0
KAHS 200515Z 12004KT 25/21 A2981 RMK A01 T02450206  RH  079%=      5-min Rain = 0
KAHS 200516Z 12004KT 25/21 A2982 RMK A01 T02450206  RH  079%=      5-min Rain = 0
KAHS 200517Z 11004KT 25/21 A2982 RMK A01 T02450206  RH  079%=      5-min Rain = 0
KAHS 200518Z 11004KT 25/21 A2982 RMK A01 T02460206  RH  078%=      5-min Rain = 0
KAHS 200519Z 11004KT 25/21 A2982 RMK A01 T02460206  RH  078%=      5-min Rain = 0
KAHS 200520Z 12004KT 25/21 A2982 RMK A01 T02460206  RH  078%=      5-min Rain = 0
KAHS 200521Z 12004KT 25/21 A2982 RMK A01 T02450206  RH  079%=      5-min Rain = 0
KAHS 200522Z 13005KT 24/21 A2982 RMK A01 T02440206  RH  079%=      5-min Rain = 0
KAHS 200523Z 12005KT 24/21 A2982 RMK A01 T02430206  RH  079%=      5-min Rain = 0
KAHS 200524Z 13006KT 24/21 A2982 RMK A01 T02430206  RH  079%=      5-min Rain = 0
KAHS 200525Z 13007KT 24/21 A2982 RMK A01 T02440206  RH  079%=      5-min Rain = 0
KAHS 200526Z 13006KT 24/21 A2982 RMK A01 T02440205  RH  079%=      5-min Rain = 0
KAHS 200527Z 13007KT 24/21 A2982 RMK A01 T02440205  RH  079%=      5-min Rain = 0
KAHS 200528Z 13006KT 24/21 A2982 RMK A01 T02440205  RH  079%=      5-min Rain = 0
KAHS 200529Z 12006KT 24/21 A2982 RMK A01 T02440205  RH  079%=      5-min Rain = 0
KAHS 200530Z 12007KT 24/21 A2982 RMK A01 T02440205  RH  079%=      5-min Rain = 0
KAHS 200531Z 13007KT 24/21 A2982 RMK A01 T02430205  RH  079%=      5-min Rain = 0
KAHS 200532Z 13006KT 24/21 A2982 RMK A01 T02430205  RH  079%=      5-min Rain = 0
KAHS 200533Z 12006KT 24/21 A2982 RMK A01 T02440205  RH  079%=      5-min Rain = 0
KAHS 200534Z 11005KT 24/20 A2982 RMK A01 T02440204  RH  079%=      5-min Rain = 0
KAHS 200535Z 12005KT 24/20 A2982 RMK A01 T02440204  RH  079%=      5-min Rain = 0
KAHS 200536Z 12006KT 24/20 A2982 RMK A01 T02440204  RH  079%=      5-min Rain = 0
KAHS 200537Z 12006KT 24/20 A2982 RMK A01 T02440204  RH  079%=      5-min Rain = 0
KAHS 200538Z 13005KT 24/20 A2982 RMK A01 T02440204  RH  079%=      5-min Rain = 0
KAHS 200539Z 13004KT 24/21 A2982 RMK A01 T02430205  RH  079%=      5-min Rain = 0
KAHS 200540Z 13004KT 24/20 A2982 RMK A01 T02430204  RH  079%=      5-min Rain = 0
KAHS 200541Z 13005KT 24/20 A2982 RMK A01 T02430204  RH  079%=      5-min Rain = 0
KAHS 200542Z 13005KT 24/20 A2982 RMK A01 T02430204  RH  079%=      5-min Rain = 0
KAHS 200543Z 13005KT 24/20 A2982 RMK A01 T02430204  RH  079%=      5-min Rain = 0
KAHS 200544Z 13005KT 24/20 A2982 RMK A01 T02430204  RH  079%=      5-min Rain = 0
KAHS 200545Z 13006KT 24/20 A2982 RMK A01 T02430204  RH  079%=      5-min Rain = 0
KAHS 200546Z 14007KT 24/20 A2982 RMK A01 T02430204  RH  079%=      5-min Rain = 0
KAHS 200547Z 14006KT 24/20 A2982 RMK A01 T02420204  RH  079%=      5-min Rain = 0
KAHS 200548Z 14007KT 24/20 A2982 RMK A01 T02420204  RH  079%=      5-min Rain = 0
KAHS 200549Z 14007KT 24/20 A2982 RMK A01 T02410204  RH  080%=      5-min Rain = 0
KAHS 200550Z 13007KT 24/20 A2982 RMK A01 T02390204  RH  081%=      5-min Rain = 0
KAHS 200551Z 13007KT 24/20 A2982 RMK A01 T02380203  RH  081%=      5-min Rain = 0
KAHS 200552Z 14006KT 24/20 A2982 RMK A01 T02380203  RH  081%=      5-min Rain = 0
KAHS 200553Z 14007KT 24/20 A2982 RMK A01 T02380202  RH  080%=      5-min Rain = 0
KAHS 200554Z 14007KT 24/20 A2982 RMK A01 T02390202  RH  080%=      5-min Rain = 0
KAHS 200555Z 14007KT 24/20 A2982 RMK A01 T02390201  RH  080%=      5-min Rain = 0
KAHS 200556Z 14006KT 24/20 A2982 RMK A01 T02390201  RH  079%=      5-min Rain = 0
KAHS 200557Z 14006KT 24/20 A2982 RMK A01 T02390201  RH  079%=      5-min Rain = 0
KAHS 200558Z 14005KT 24/20 A2982 RMK A01 T02390201  RH  079%=      5-min Rain = 0
KAHS 200559Z 13005KT 24/20 A2982 RMK A01 T02390201  RH  079%=      5-min Rain = 0
KAHS 200600Z 13004KT 24/20 A2982 RMK A01 T02390200  RH  079%=      5-min Rain = 0
KAHS 200601Z 13004KT 24/20 A2982 RMK A01 T02390201  RH  079%=      5-min Rain = 0
KAHS 200602Z 13004KT 24/20 A2982 RMK A01 T02390199  RH  078%=      5-min Rain = 0
KAHS 200603Z 12003KT 24/20 A2982 RMK A01 T02390199  RH  078%=      5-min Rain = 0
KAHS 200604Z 12004KT 24/20 A2982 RMK A01 T02390199  RH  078%=      5-min Rain = 0
KAHS 200605Z 11003KT 24/20 A2982 RMK A01 T02390199  RH  078%=      5-min Rain = 0
KAHS 200606Z 11004KT 24/20 A2982 RMK A01 T02400198  RH  078%=      5-min Rain = 0
KAHS 200607Z 11004KT 24/20 A2982 RMK A01 T02390198  RH  078%=      5-min Rain = 0
KAHS 200608Z 10004KT 24/20 A2982 RMK A01 T02380198  RH  078%=      5-min Rain = 0
KAHS 200609Z 10004KT 24/20 A2982 RMK A01 T02380198  RH  078%=      5-min Rain = 0
KAHS 200610Z 09004KT 24/20 A2982 RMK A01 T02370198  RH  079%=      5-min Rain = 0
KAHS 200611Z 10005KT 24/20 A2982 RMK A01 T02380196  RH  077%=      5-min Rain = 0
KAHS 200612Z 11004KT 24/20 A2982 RMK A01 T02390196  RH  077%=      5-min Rain = 0
KAHS 200613Z 11004KT 24/20 A2982 RMK A01 T02400196  RH  077%=      5-min Rain = 0
KAHS 200614Z 12004KT 24/20 A2982 RMK A01 T02390196  RH  077%=      5-min Rain = 0
KAHS 200615Z 12004KT 24/20 A2982 RMK A01 T02390196  RH  077%=      5-min Rain = 0
KAHS 200616Z 12004KT 24/20 A2982 RMK A01 T02390196  RH  077%=      5-min Rain = 0
KAHS 200617Z 12003KT 24/20 A2982 RMK A01 T02380196  RH  077%=      5-min Rain = 0
KAHS 200618Z 11003KT 24/20 A2982 RMK A01 T02380195  RH  077%=      5-min Rain = 0
KAHS 200619Z 12004KT 24/20 A2982 RMK A01 T02380195  RH  077%=      5-min Rain = 0
KAHS 200620Z 12004KT 24/20 A2982 RMK A01 T02380196  RH  077%=      5-min Rain = 0
KAHS 200621Z 13004KT 24/20 A2981 RMK A01 T02380195  RH  077%=      5-min Rain = 0
KAHS 200622Z 13004KT 24/20 A2981 RMK A01 T02370195  RH  077%=      5-min Rain = 0
KAHS 200623Z 13003KT 24/20 A2981 RMK A01 T02370195  RH  077%=      5-min Rain = 0
KAHS 200624Z 14004KT 24/20 A2981 RMK A01 T02360195  RH  077%=      5-min Rain = 0
KAHS 200625Z 14003KT 24/20 A2981 RMK A01 T02360195  RH  078%=      5-min Rain = 0
KAHS 200626Z 15004KT 24/20 A2982 RMK A01 T02360195  RH  078%=      5-min Rain = 0
KAHS 200627Z 16003KT 24/20 A2982 RMK A01 T02350195  RH  078%=      5-min Rain = 0
KAHS 200628Z 17003KT 23/20 A2982 RMK A01 T02330195  RH  079%=      5-min Rain = 0
KAHS 200629Z 17002KT 23/20 A2981 RMK A01 T02320196  RH  080%=      5-min Rain = 0
KAHS 200630Z 20002KT 23/20 A2981 RMK A01 T02310196  RH  080%=      5-min Rain = 0
KAHS 200631Z 21001KT 23/20 A2981 RMK A01 T02300196  RH  081%=      5-min Rain = 0
KAHS 200632Z 22000KT 23/20 A2981 RMK A01 T02300196  RH  081%=      5-min Rain = 0
KAHS 200633Z 00000KT 23/20 A2981 RMK A01 T02280195  RH  082%=      5-min Rain = 0
KAHS 200634Z 01000KT 23/20 A2981 RMK A01 T02280195  RH  082%=      5-min Rain = 0
KAHS 200635Z 01002KT 23/20 A2981 RMK A01 T02270196  RH  083%=      5-min Rain = 0
KAHS 200636Z 03002KT 23/20 A2981 RMK A01 T02260195  RH  083%=      5-min Rain = 0
KAHS 200637Z 04003KT 23/20 A2981 RMK A01 T02260195  RH  083%=      5-min Rain = 0
KAHS 200638Z 03003KT 23/20 A2981 RMK A01 T02260195  RH  083%=      5-min Rain = 0
KAHS 200639Z 04003KT 23/19 A2981 RMK A01 T02250194  RH  083%=      5-min Rain = 0
KAHS 200640Z 04002KT 23/19 A2981 RMK A01 T02250194  RH  082%=      5-min Rain = 0
KAHS 200641Z 04002KT 23/19 A2981 RMK A01 T02260194  RH  082%=      5-min Rain = 0
KAHS 200642Z 03002KT 23/19 A2981 RMK A01 T02250193  RH  082%=      5-min Rain = 0
KAHS 200643Z 03001KT 23/19 A2981 RMK A01 T02250193  RH  082%=      5-min Rain = 0
KAHS 200644Z 06001KT 23/19 A2981 RMK A01 T02250193  RH  082%=      5-min Rain = 0
KAHS 200645Z 11000KT 23/19 A2981 RMK A01 T02260192  RH  081%=      5-min Rain = 0
KAHS 200646Z 00000KT 23/19 A2981 RMK A01 T02270192  RH  080%=      5-min Rain = 0
KAHS 200647Z 16000KT 23/19 A2981 RMK A01 T02270192  RH  081%=      5-min Rain = 0
KAHS 200648Z 16001KT 23/19 A2981 RMK A01 T02280192  RH  080%=      5-min Rain = 0
KAHS 200649Z 13000KT 23/19 A2981 RMK A01 T02270192  RH  081%=      5-min Rain = 0
KAHS 200650Z 17001KT 23/19 A2981 RMK A01 T02260192  RH  081%=      5-min Rain = 0
KAHS 200651Z 14000KT 23/19 A2981 RMK A01 T02250191  RH  081%=      5-min Rain = 0
KAHS 200652Z 15001KT 22/19 A2981 RMK A01 T02240191  RH  082%=      5-min Rain = 0
KAHS 200653Z 15002KT 23/19 A298 RMK A01 T02250190  RH  080%=      5-min Rain = 0
KAHS 200654Z 18003KT 23/19 A298 RMK A01 T02260191  RH  080%=      5-min Rain = 0
KAHS 200655Z 17004KT 23/19 A298 RMK A01 T02300189  RH  078%=      5-min Rain = 0
KAHS 200656Z 16003KT 23/19 A2981 RMK A01 T02330189  RH  077%=      5-min Rain = 0
KAHS 200657Z 17003KT 23/19 A298 RMK A01 T02310190  RH  078%=      5-min Rain = 0
KAHS 200658Z 16003KT 23/19 A298 RMK A01 T02290190  RH  079%=      5-min Rain = 0
KAHS 200659Z 18002KT 23/19 A298 RMK A01 T02280190  RH  079%=      5-min Rain = 0
KAHS 200700Z 16003KT 23/19 A298 RMK A01 T02280190  RH  079%=      5-min Rain = 0
KAHS 200701Z 16003KT 23/19 A298 RMK A01 T02270190  RH  079%=      5-min Rain = 0
KAHS 200702Z 16002KT 23/19 A298 RMK A01 T02280190  RH  080%=      5-min Rain = 0
KAHS 200703Z 15002KT 23/19 A298 RMK A01 T02280191  RH  080%=      5-min Rain = 0
KAHS 200704Z 14003KT 23/19 A298 RMK A01 T02270191  RH  080%=      5-min Rain = 0
KAHS 200705Z 14003KT 23/19 A298 RMK A01 T02270191  RH  080%=      5-min Rain = 0
KAHS 200706Z 13003KT 23/19 A298 RMK A01 T02280191  RH  080%=      5-min Rain = 0
KAHS 200707Z 13003KT 23/19 A298 RMK A01 T02290190  RH  079%=      5-min Rain = 0
KAHS 200708Z 12002KT 23/19 A298 RMK A01 T02290190  RH  078%=      5-min Rain = 0
KAHS 200709Z 13002KT 23/19 A298 RMK A01 T02290189  RH  078%=      5-min Rain = 0
KAHS 200710Z 12002KT 23/19 A298 RMK A01 T02290189  RH  078%=      5-min Rain = 0
KAHS 200711Z 13003KT 23/19 A298 RMK A01 T02300188  RH  078%=      5-min Rain = 0
KAHS 200712Z 12002KT 23/19 A298 RMK A01 T02290188  RH  077%=      5-min Rain = 0
KAHS 200713Z 13002KT 23/19 A298 RMK A01 T02290188  RH  078%=      5-min Rain = 0
KAHS 200714Z 12002KT 23/19 A298 RMK A01 T02290188  RH  078%=      5-min Rain = 0
KAHS 200715Z 13002KT 23/19 A298 RMK A01 T02280188  RH  078%=      5-min Rain = 0
KAHS 200716Z 13003KT 23/19 A298 RMK A01 T02280187  RH  078%=      5-min Rain = 0
KAHS 200717Z 14002KT 23/19 A298 RMK A01 T02290189  RH  078%=      5-min Rain = 0
KAHS 200718Z 13001KT 23/19 A298 RMK A01 T02270189  RH  079%=      5-min Rain = 0
KAHS 200719Z 12002KT 23/19 A298 RMK A01 T02260189  RH  079%=      5-min Rain = 0
KAHS 200720Z 13003KT 23/19 A298 RMK A01 T02250189  RH  080%=      5-min Rain = 0
KAHS 200721Z 13002KT 22/19 A298 RMK A01 T02240188  RH  080%=      5-min Rain = 0
KAHS 200722Z 13002KT 22/19 A298 RMK A01 T02240187  RH  080%=      5-min Rain = 0
KAHS 200723Z 12002KT 22/19 A298 RMK A01 T02240187  RH  080%=      5-min Rain = 0
KAHS 200724Z 12002KT 22/19 A298 RMK A01 T02240187  RH  079%=      5-min Rain = 0
KAHS 200725Z 12003KT 22/19 A298 RMK A01 T02240187  RH  079%=      5-min Rain = 0
KAHS 200726Z 11003KT 22/19 A298 RMK A01 T02240186  RH  079%=      5-min Rain = 0
KAHS 200727Z 11003KT 22/19 A298 RMK A01 T02240186  RH  079%=      5-min Rain = 0
KAHS 200728Z 11003KT 22/19 A298 RMK A01 T02230186  RH  080%=      5-min Rain = 0
KAHS 200729Z 11003KT 22/19 A298 RMK A01 T02220187  RH  080%=      5-min Rain = 0
KAHS 200730Z 11003KT 22/19 A298 RMK A01 T02210187  RH  081%=      5-min Rain = 0
KAHS 200731Z 11003KT 22/19 A298 RMK A01 T02210186  RH  081%=      5-min Rain = 0
KAHS 200732Z 12003KT 22/19 A298 RMK A01 T02200186  RH  081%=      5-min Rain = 0
KAHS 200733Z 12003KT 22/19 A298 RMK A01 T02200186  RH  081%=      5-min Rain = 0
KAHS 200734Z 13003KT 22/19 A298 RMK A01 T02190186  RH  081%=      5-min Rain = 0
KAHS 200735Z 13003KT 22/19 A298 RMK A01 T02190186  RH  082%=      5-min Rain = 0
KAHS 200736Z 12003KT 22/19 A2979 RMK A01 T02190186  RH  082%=      5-min Rain = 0
KAHS 200737Z 11004KT 22/19 A2979 RMK A01 T02180186  RH  082%=      5-min Rain = 0
KAHS 200738Z 11004KT 22/19 A2979 RMK A01 T02180186  RH  082%=      5-min Rain = 0
KAHS 200739Z 11003KT 22/19 A2979 RMK A01 T02180186  RH  082%=      5-min Rain = 0
KAHS 200740Z 10003KT 22/19 A2979 RMK A01 T02180186  RH  082%=      5-min Rain = 0
KAHS 200741Z 10003KT 22/19 A2979 RMK A01 T02180185  RH  082%=      5-min Rain = 0
KAHS 200742Z 10004KT 22/19 A2979 RMK A01 T02170185  RH  082%=      5-min Rain = 0
KAHS 200743Z 10004KT 22/19 A2979 RMK A01 T02170185  RH  082%=      5-min Rain = 0
KAHS 200744Z 09005KT 22/19 A2979 RMK A01 T02170185  RH  082%=      5-min Rain = 0
KAHS 200745Z 09005KT 22/19 A2979 RMK A01 T02160185  RH  082%=      5-min Rain = 0
KAHS 200746Z 09005KT 22/18 A2979 RMK A01 T02150184  RH  082%=      5-min Rain = 0
KAHS 200747Z 09006KT 22/18 A2979 RMK A01 T02150184  RH  082%=      5-min Rain = 0
KAHS 200748Z 09005KT 21/18 A2979 RMK A01 T02140184  RH  083%=      5-min Rain = 0
KAHS 200749Z 09006KT 21/18 A2979 RMK A01 T02140183  RH  083%=      5-min Rain = 0
KAHS 200750Z 09005KT 21/18 A2979 RMK A01 T02140183  RH  082%=      5-min Rain = 0
KAHS 200751Z 08006KT 21/18 A2979 RMK A01 T02140183  RH  082%=      5-min Rain = 0
KAHS 200752Z 08006KT 22/18 A2979 RMK A01 T02150184  RH  082%=      5-min Rain = 0
KAHS 200753Z 09006KT 22/18 A2979 RMK A01 T02150183  RH  082%=      5-min Rain = 0
KAHS 200754Z 09006KT 22/18 A2979 RMK A01 T02150183  RH  082%=      5-min Rain = 0
KAHS 200755Z 08006KT 22/18 A2979 RMK A01 T02150184  RH  082%=      5-min Rain = 0
KAHS 200756Z 09006KT 22/18 A2979 RMK A01 T02150184  RH  082%=      5-min Rain = 0
KAHS 200757Z 09006KT 22/18 A2979 RMK A01 T02160184  RH  082%=      5-min Rain = 0
KAHS 200758Z 09006KT 22/18 A2979 RMK A01 T02150184  RH  082%=      5-min Rain = 0
KAHS 200759Z 10005KT 22/18 A2979 RMK A01 T02150184  RH  083%=      5-min Rain = 0
KAHS 200800Z 10005KT 21/19 A2979 RMK A01 T02140185  RH  083%=      5-min Rain = 0
KAHS 200801Z 09005KT 21/19 A2979 RMK A01 T02130185  RH  084%=      5-min Rain = 0
KAHS 200802Z 09005KT 21/19 A2979 RMK A01 T02130186  RH  085%=      5-min Rain = 0
KAHS 200803Z 09005KT 21/19 A2979 RMK A01 T02110186  RH  086%=      5-min Rain = 0
KAHS 200804Z 09005KT 21/19 A2979 RMK A01 T02100187  RH  086%=      5-min Rain = 0
KAHS 200805Z 09005KT 21/19 A2979 RMK A01 T02100187  RH  087%=      5-min Rain = 0
KAHS 200806Z 10004KT 21/19 A2979 RMK A01 T02090188  RH  087%=      5-min Rain = 0
KAHS 200807Z 09004KT 21/19 A2979 RMK A01 T02090188  RH  088%=      5-min Rain = 0
KAHS 200808Z 10005KT 21/19 A2979 RMK A01 T02080188  RH  088%=      5-min Rain = 0
KAHS 200809Z 10005KT 21/19 A2979 RMK A01 T02080188  RH  088%=      5-min Rain = 0
KAHS 200810Z 10005KT 21/19 A2979 RMK A01 T02080188  RH  089%=      5-min Rain = 0
KAHS 200811Z 10004KT 21/19 A2979 RMK A01 T02080188  RH  089%=      5-min Rain = 0
KAHS 200812Z 10004KT 21/19 A2979 RMK A01 T02070188  RH  089%=      5-min Rain = 0
KAHS 200813Z 10005KT 21/19 A2978 RMK A01 T02070189  RH  089%=      5-min Rain = 0
KAHS 200814Z 10005KT 21/19 A2978 RMK A01 T02070188  RH  089%=      5-min Rain = 0
KAHS 200815Z 10005KT 21/19 A2978 RMK A01 T02070189  RH  089%=      5-min Rain = 0
KAHS 200816Z 10005KT 21/19 A2978 RMK A01 T02060188  RH  090%=      5-min Rain = 0
KAHS 200817Z 10005KT 21/19 A2978 RMK A01 T02060189  RH  090%=      5-min Rain = 0
KAHS 200818Z 10005KT 21/19 A2978 RMK A01 T02050188  RH  090%=      5-min Rain = 0
KAHS 200819Z 10005KT 21/19 A2978 RMK A01 T02050189  RH  090%=      5-min Rain = 0
KAHS 200820Z 10005KT 21/19 A2978 RMK A01 T02050189  RH  090%=      5-min Rain = 0
KAHS 200821Z 10006KT 21/19 A2978 RMK A01 T02050189  RH  091%=      5-min Rain = 0
KAHS 200822Z 10006KT 21/19 A2978 RMK A01 T02050190  RH  091%=      5-min Rain = 0
KAHS 200823Z 10006KT 21/19 A2978 RMK A01 T02050190  RH  091%=      5-min Rain = 0
KAHS 200824Z 10006KT 21/19 A2978 RMK A01 T02060190  RH  091%=      5-min Rain = 0
KAHS 200825Z 10006KT 21/19 A2978 RMK A01 T02060190  RH  091%=      5-min Rain = 0
KAHS 200826Z 10005KT 21/19 A2978 RMK A01 T02070190  RH  090%=      5-min Rain = 0
KAHS 200827Z 10005KT 21/19 A2978 RMK A01 T02070190  RH  090%=      5-min Rain = 0
KAHS 200828Z 10006KT 21/19 A2978 RMK A01 T02070190  RH  090%=      5-min Rain = 0
KAHS 200829Z 10005KT 21/19 A2978 RMK A01 T02070190  RH  090%=      5-min Rain = 0
KAHS 200830Z 10005KT 21/19 A2978 RMK A01 T02070190  RH  090%=      5-min Rain = 0
KAHS 200831Z 09005KT 21/19 A2978 RMK A01 T02070190  RH  090%=      5-min Rain = 0
KAHS 200832Z 09005KT 21/19 A2978 RMK A01 T02070190  RH  090%=      5-min Rain = 0
KAHS 200833Z 09005KT 21/19 A2978 RMK A01 T02070191  RH  091%=      5-min Rain = 0
KAHS 200834Z 08006KT 21/19 A2978 RMK A01 T02060191  RH  091%=      5-min Rain = 0
KAHS 200835Z 08005KT 21/19 A2978 RMK A01 T02070190  RH  090%=      5-min Rain = 0
KAHS 200836Z 08005KT 21/19 A2978 RMK A01 T02060190  RH  090%=      5-min Rain = 0
KAHS 200837Z 08005KT 21/19 A2978 RMK A01 T02060190  RH  090%=      5-min Rain = 0
KAHS 200838Z 08005KT 21/19 A2978 RMK A01 T02060189  RH  090%=      5-min Rain = 0
KAHS 200839Z 07005KT 21/19 A2978 RMK A01 T02060188  RH  090%=      5-min Rain = 0
KAHS 200840Z 07004KT 21/19 A2978 RMK A01 T02060188  RH  089%=      5-min Rain = 0
KAHS 200841Z 06003KT 21/19 A2978 RMK A01 T02060187  RH  089%=      5-min Rain = 0
KAHS 200842Z 06003KT 21/19 A2978 RMK A01 T02060187  RH  089%=      5-min Rain = 0
KAHS 200843Z 05003KT 21/19 A2978 RMK A01 T02050186  RH  089%=      5-min Rain = 0
KAHS 200844Z 04003KT 20/19 A2978 RMK A01 T02040186  RH  089%=      5-min Rain = 0
KAHS 200845Z 03003KT 20/18 A2978 RMK A01 T02040184  RH  089%=      5-min Rain = 0
KAHS 200846Z 02003KT 20/18 A2978 RMK A01 T02030183  RH  089%=      5-min Rain = 0
KAHS 200847Z 01003KT 20/18 A2978 RMK A01 T02020183  RH  089%=      5-min Rain = 0
KAHS 200848Z 02003KT 20/18 A2978 RMK A01 T02020182  RH  088%=      5-min Rain = 0
KAHS 200849Z 03002KT 20/18 A2979 RMK A01 T02020182  RH  088%=      5-min Rain = 0
KAHS 200850Z 04003KT 20/18 A2979 RMK A01 T02020181  RH  088%=      5-min Rain = 0
KAHS 200851Z 05003KT 20/18 A2979 RMK A01 T02030181  RH  087%=      5-min Rain = 0
KAHS 200852Z 05003KT 20/18 A2978 RMK A01 T02030181  RH  087%=      5-min Rain = 0
KAHS 200853Z 05003KT 20/18 A2978 RMK A01 T02040181  RH  086%=      5-min Rain = 0
KAHS 200854Z 06003KT 21/18 A2978 RMK A01 T02050181  RH  086%=      5-min Rain = 0
KAHS 200855Z 05003KT 21/18 A2978 RMK A01 T02050181  RH  086%=      5-min Rain = 0
KAHS 200856Z 06002KT 21/18 A2978 RMK A01 T02050182  RH  086%=      5-min Rain = 0
KAHS 200857Z 07002KT 21/18 A2978 RMK A01 T02050182  RH  087%=      5-min Rain = 0
KAHS 200858Z 07002KT 20/18 A2979 RMK A01 T02040182  RH  087%=      5-min Rain = 0
KAHS 200859Z 07002KT 20/18 A2978 RMK A01 T02040182  RH  087%=      5-min Rain = 0
KAHS 200900Z 06002KT 20/18 A2978 RMK A01 T02040182  RH  087%=      5-min Rain = 0
KAHS 200901Z 04001KT 20/18 A2978 RMK A01 T02030183  RH  088%=      5-min Rain = 0
KAHS 200902Z 02001KT 20/18 A2978 RMK A01 T02030183  RH  088%=      5-min Rain = 0
KAHS 200903Z 35001KT 20/18 A2978 RMK A01 T02010182  RH  089%=      5-min Rain = 0
KAHS 200904Z 33002KT 20/18 A2978 RMK A01 T02000181  RH  089%=      5-min Rain = 0
KAHS 200905Z 34003KT 20/18 A2978 RMK A01 T01980181  RH  089%=      5-min Rain = 0
KAHS 200906Z 34002KT 20/18 A2978 RMK A01 T01980181  RH  090%=      5-min Rain = 0
KAHS 200907Z 01002KT 20/18 A2978 RMK A01 T01970181  RH  090%=      5-min Rain = 0
KAHS 200908Z 05001KT 20/18 A2978 RMK A01 T01970180  RH  090%=      5-min Rain = 0
KAHS 200909Z 08001KT 20/18 A2978 RMK A01 T01970180  RH  090%=      5-min Rain = 0
KAHS 200910Z 10002KT 20/18 A2978 RMK A01 T01970180  RH  090%=      5-min Rain = 0
KAHS 200911Z 11002KT 20/18 A2978 RMK A01 T01970180  RH  090%=      5-min Rain = 0
KAHS 200912Z 11002KT 20/18 A2978 RMK A01 T01970181  RH  090%=      5-min Rain = 0
KAHS 200913Z 10002KT 20/18 A2978 RMK A01 T01970181  RH  090%=      5-min Rain = 0
KAHS 200914Z 10002KT 20/18 A2978 RMK A01 T01970181  RH  091%=      5-min Rain = 0
KAHS 200915Z 09002KT 20/18 A2978 RMK A01 T01970181  RH  091%=      5-min Rain = 0
KAHS 200916Z 08003KT 20/18 A2978 RMK A01 T01960181  RH  091%=      5-min Rain = 0
KAHS 200917Z 08003KT 20/18 A2978 RMK A01 T01960181  RH  091%=      5-min Rain = 0
KAHS 200918Z 07003KT 20/18 A2978 RMK A01 T01960181  RH  091%=      5-min Rain = 0
KAHS 200919Z 07003KT 20/18 A2978 RMK A01 T01960181  RH  091%=      5-min Rain = 0
KAHS 200920Z 07003KT 20/18 A2978 RMK A01 T01960180  RH  091%=      5-min Rain = 0
KAHS 200921Z 06003KT 20/18 A2978 RMK A01 T01960180  RH  090%=      5-min Rain = 0
KAHS 200922Z 05003KT 20/18 A2978 RMK A01 T01970180  RH  090%=      5-min Rain = 0
KAHS 200923Z 04003KT 20/18 A2978 RMK A01 T01970180  RH  090%=      5-min Rain = 0
KAHS 200924Z 04004KT 20/18 A2978 RMK A01 T01970180  RH  090%=      5-min Rain = 0
KAHS 200925Z 04004KT 20/18 A2978 RMK A01 T01960180  RH  090%=      5-min Rain = 0
KAHS 200926Z 04004KT 20/18 A2978 RMK A01 T01960180  RH  090%=      5-min Rain = 0
KAHS 200927Z 04003KT 20/18 A2978 RMK A01 T01970180  RH  090%=      5-min Rain = 0
KAHS 200928Z 04003KT 20/18 A2978 RMK A01 T01980180  RH  089%=      5-min Rain = 0
KAHS 200929Z 06002KT 20/18 A2978 RMK A01 T01990180  RH  089%=      5-min Rain = 0
KAHS 200930Z 08003KT 20/18 A2978 RMK A01 T02000180  RH  088%=      5-min Rain = 0
KAHS 200931Z 09003KT 20/18 A2978 RMK A01 T02020180  RH  087%=      5-min Rain = 0
KAHS 200932Z 09004KT 20/18 A2978 RMK A01 T02020180  RH  087%=      5-min Rain = 0
KAHS 200933Z 10003KT 20/18 A2978 RMK A01 T02020180  RH  087%=      5-min Rain = 0
KAHS 200934Z 11003KT 20/18 A2978 RMK A01 T02010179  RH  087%=      5-min Rain = 0
KAHS 200935Z 11003KT 20/18 A2977 RMK A01 T02000179  RH  088%=      5-min Rain = 0
KAHS 200936Z 11003KT 20/18 A2977 RMK A01 T01990179  RH  088%=      5-min Rain = 0
KAHS 200937Z 11003KT 20/18 A2977 RMK A01 T01980178  RH  088%=      5-min Rain = 0
KAHS 200938Z 11003KT 20/18 A2977 RMK A01 T01970179  RH  089%=      5-min Rain = 0
KAHS 200939Z 11003KT 20/18 A2977 RMK A01 T01970179  RH  089%=      5-min Rain = 0
KAHS 200940Z 11004KT 20/18 A2977 RMK A01 T01960179  RH  090%=      5-min Rain = 0
KAHS 200941Z 11004KT 20/18 A2977 RMK A01 T01960179  RH  090%=      5-min Rain = 0
KAHS 200942Z 11004KT 20/18 A2977 RMK A01 T01950179  RH  090%=      5-min Rain = 0
KAHS 200943Z 11004KT 20/18 A2977 RMK A01 T01950179  RH  090%=      5-min Rain = 0
KAHS 200944Z 11004KT 20/18 A2977 RMK A01 T01950180  RH  090%=      5-min Rain = 0
KAHS 200945Z 12003KT 20/18 A2977 RMK A01 T01950180  RH  091%=      5-min Rain = 0
KAHS 200946Z 11003KT 20/18 A2977 RMK A01 T01950180  RH  091%=      5-min Rain = 0
KAHS 200947Z 12003KT 20/18 A2977 RMK A01 T01960180  RH  091%=      5-min Rain = 0
KAHS 200948Z 12003KT 20/18 A2977 RMK A01 T01960180  RH  091%=      5-min Rain = 0
KAHS 200949Z 12003KT 20/18 A2977 RMK A01 T01960180  RH  091%=      5-min Rain = 0
KAHS 200950Z 12003KT 20/18 A2978 RMK A01 T01950180  RH  091%=      5-min Rain = 0
KAHS 200951Z 12004KT 20/18 A2978 RMK A01 T01950180  RH  091%=      5-min Rain = 0
KAHS 200952Z 12004KT 20/18 A2978 RMK A01 T01960181  RH  091%=      5-min Rain = 0
KAHS 200953Z 13004KT 20/18 A2978 RMK A01 T01960181  RH  091%=      5-min Rain = 0
KAHS 200954Z 13004KT 20/18 A2978 RMK A01 T01960181  RH  091%=      5-min Rain = 0
KAHS 200955Z 13004KT 20/18 A2978 RMK A01 T01960180  RH  091%=      5-min Rain = 0
KAHS 200956Z 14004KT 20/18 A2978 RMK A01 T01960180  RH  091%=      5-min Rain = 0
KAHS 200957Z 14004KT 20/18 A2977 RMK A01 T01950179  RH  090%=      5-min Rain = 0
KAHS 200958Z 15004KT 19/18 A2977 RMK A01 T01940178  RH  090%=      5-min Rain = 0
KAHS 200959Z 15004KT 19/18 A2977 RMK A01 T01930178  RH  091%=      5-min Rain = 0
KAHS 201000Z 15004KT 19/18 A2978 RMK A01 T01920177  RH  091%=      5-min Rain = 0
KAHS 201001Z 16003KT 19/18 A2978 RMK A01 T01910177  RH  091%=      5-min Rain = 0
KAHS 201002Z 16002KT 19/18 A2978 RMK A01 T01910177  RH  092%=      5-min Rain = 0
KAHS 201003Z 18001KT 19/18 A2978 RMK A01 T01900177  RH  092%=      5-min Rain = 0
KAHS 201004Z 20000KT 19/18 A2978 RMK A01 T01890177  RH  092%=      5-min Rain = 0
KAHS 201005Z 21000KT 19/18 A2978 RMK A01 T01880176  RH  093%=      5-min Rain = 0
KAHS 201006Z 33001KT 19/18 A2978 RMK A01 T01880176  RH  093%=      5-min Rain = 0
KAHS 201007Z 33002KT 19/18 A2978 RMK A01 T01880177  RH  093%=      5-min Rain = 0
KAHS 201008Z 34002KT 19/18 A2978 RMK A01 T01880177  RH  094%=      5-min Rain = 0
KAHS 201009Z 35003KT 19/18 A2978 RMK A01 T01880178  RH  094%=      5-min Rain = 0
KAHS 201010Z 35002KT 19/18 A2978 RMK A01 T01890179  RH  094%=      5-min Rain = 0
KAHS 201011Z 36002KT 19/18 A2978 RMK A01 T01900179  RH  094%=      5-min Rain = 0
KAHS 201012Z 01001KT 19/18 A2978 RMK A01 T01900180  RH  093%=      5-min Rain = 0
KAHS 201013Z 03001KT 19/18 A2978 RMK A01 T01910180  RH  093%=      5-min Rain = 0
KAHS 201014Z 06000KT 19/18 A2978 RMK A01 T01920180  RH  093%=      5-min Rain = 0
KAHS 201015Z 12000KT 19/18 A2978 RMK A01 T01930181  RH  093%=      5-min Rain = 0
KAHS 201016Z 00000KT 20/18 A2978 RMK A01 T01950182  RH  092%=      5-min Rain = 0
KAHS 201017Z 16001KT 20/18 A2978 RMK A01 T01960182  RH  092%=      5-min Rain = 0
KAHS 201018Z 15001KT 20/18 A2978 RMK A01 T01970182  RH  091%=      5-min Rain = 0
KAHS 201019Z 16002KT 20/18 A2977 RMK A01 T01970180  RH  090%=      5-min Rain = 0
KAHS 201020Z 16002KT 20/18 A2977 RMK A01 T01950178  RH  090%=      5-min Rain = 0
KAHS 201021Z 17003KT 19/18 A2977 RMK A01 T01940178  RH  090%=      5-min Rain = 0
KAHS 201022Z 17004KT 19/18 A2977 RMK A01 T01930177  RH  090%=      5-min Rain = 0
KAHS 201023Z 17004KT 19/18 A2977 RMK A01 T01910176  RH  091%=      5-min Rain = 0
KAHS 201024Z 18004KT 19/18 A2977 RMK A01 T01900175  RH  091%=      5-min Rain = 0
KAHS 201025Z 18004KT 19/18 A2977 RMK A01 T01890175  RH  092%=      5-min Rain = 0
KAHS 201026Z 18004KT 19/18 A2977 RMK A01 T01890176  RH  092%=      5-min Rain = 0
KAHS 201027Z 18005KT 19/18 A2977 RMK A01 T01890176  RH  092%=      5-min Rain = 0
KAHS 201028Z 18005KT 19/18 A2978 RMK A01 T01890176  RH  092%=      5-min Rain = 0
KAHS 201029Z 18005KT 19/18 A2978 RMK A01 T01890176  RH  092%=      5-min Rain = 0
KAHS 201030Z 18005KT 19/18 A2977 RMK A01 T01890176  RH  092%=      5-min Rain = 0
KAHS 201031Z 18005KT 19/18 A2978 RMK A01 T01890176  RH  092%=      5-min Rain = 0
KAHS 201032Z 18005KT 19/18 A2978 RMK A01 T01890176  RH  092%=      5-min Rain = 0
KAHS 201033Z 18004KT 19/18 A2978 RMK A01 T01890176  RH  092%=      5-min Rain = 0
KAHS 201034Z 18004KT 19/18 A2978 RMK A01 T01900176  RH  092%=      5-min Rain = 0
KAHS 201035Z 18004KT 19/18 A2978 RMK A01 T01900176  RH  091%=      5-min Rain = 0
KAHS 201036Z 18004KT 19/18 A2978 RMK A01 T01910176  RH  091%=      5-min Rain = 0
KAHS 201037Z 18004KT 19/18 A2978 RMK A01 T01910176  RH  091%=      5-min Rain = 0
KAHS 201038Z 20004KT 19/18 A2978 RMK A01 T01920177  RH  091%=      5-min Rain = 0
KAHS 201039Z 20003KT 19/18 A2978 RMK A01 T01920176  RH  090%=      5-min Rain = 0
KAHS 201040Z 22003KT 19/18 A2978 RMK A01 T01930177  RH  090%=      5-min Rain = 0
KAHS 201041Z 20003KT 19/18 A2978 RMK A01 T01930176  RH  090%=      5-min Rain = 0
KAHS 201042Z 21003KT 19/18 A2978 RMK A01 T01930176  RH  090%=      5-min Rain = 0
KAHS 201043Z 20004KT 19/18 A2978 RMK A01 T01940177  RH  090%=      5-min Rain = 0
KAHS 201044Z 20004KT 19/18 A2978 RMK A01 T01940177  RH  090%=      5-min Rain = 0
KAHS 201045Z 20004KT 20/18 A2978 RMK A01 T01950178  RH  090%=      5-min Rain = 0
KAHS 201046Z 19005KT 20/18 A2978 RMK A01 T01960179  RH  090%=      5-min Rain = 0
KAHS 201047Z 18004KT 20/18 A2978 RMK A01 T01960178  RH  089%=      5-min Rain = 0
KAHS 201048Z 18004KT 20/18 A2978 RMK A01 T01960178  RH  089%=      5-min Rain = 0
KAHS 201049Z 18005KT 20/18 A2978 RMK A01 T01960178  RH  089%=      5-min Rain = 0
KAHS 201050Z 17004KT 20/18 A2978 RMK A01 T01950177  RH  089%=      5-min Rain = 0
KAHS 201051Z 17005KT 20/18 A2978 RMK A01 T01950177  RH  089%=      5-min Rain = 0
KAHS 201052Z 17004KT 20/18 A2978 RMK A01 T01950177  RH  090%=      5-min Rain = 0
KAHS 201053Z 17004KT 20/18 A2978 RMK A01 T01950177  RH  090%=      5-min Rain = 0
KAHS 201054Z 17004KT 20/18 A2978 RMK A01 T01950177  RH  090%=      5-min Rain = 0
KAHS 201055Z 17003KT 20/18 A2978 RMK A01 T01950178  RH  090%=      5-min Rain = 0
KAHS 201056Z 17003KT 20/18 A2978 RMK A01 T01960178  RH  089%=      5-min Rain = 0
KAHS 201057Z 17003KT 20/18 A2978 RMK A01 T01960178  RH  089%=      5-min Rain = 0
KAHS 201058Z 18003KT 20/18 A2978 RMK A01 T01970178  RH  089%=      5-min Rain = 0
KAHS 201059Z 18003KT 20/18 A2978 RMK A01 T01970178  RH  089%=      5-min Rain = 0
KAHS 201100Z 18004KT 20/18 A2978 RMK A01 T01970178  RH  089%=      5-min Rain = 0
KAHS 201101Z 18005KT 20/18 A2978 RMK A01 T01980179  RH  088%=      5-min Rain = 0
KAHS 201102Z 19005KT 20/18 A2978 RMK A01 T01980178  RH  088%=      5-min Rain = 0
KAHS 201103Z 19005KT 20/18 A2978 RMK A01 T01980178  RH  088%=      5-min Rain = 0
KAHS 201104Z 19005KT 20/18 A2978 RMK A01 T01980178  RH  088%=      5-min Rain = 0
KAHS 201105Z 19006KT 20/18 A2978 RMK A01 T01980178  RH  088%=      5-min Rain = 0
KAHS 201106Z 19006KT 20/18 A2978 RMK A01 T01980178  RH  088%=      5-min Rain = 0
KAHS 201107Z 19006KT 20/18 A2978 RMK A01 T01980178  RH  088%=      5-min Rain = 0
KAHS 201108Z 19007KT 20/18 A2978 RMK A01 T01980178  RH  088%=      5-min Rain = 0
KAHS 201109Z 19007KT 20/18 A2978 RMK A01 T01990179  RH  088%=      5-min Rain = 0
KAHS 201110Z 19006KT 20/18 A2978 RMK A01 T02000180  RH  088%=      5-min Rain = 0
KAHS 201111Z 19006KT 20/18 A2978 RMK A01 T02010180  RH  088%=      5-min Rain = 0
KAHS 201112Z 19007KT 20/18 A2978 RMK A01 T02010180  RH  087%=      5-min Rain = 0
KAHS 201113Z 19006KT 20/18 A2978 RMK A01 T02020180  RH  087%=      5-min Rain = 0
KAHS 201114Z 19007KT 20/18 A2978 RMK A01 T02020180  RH  087%=      5-min Rain = 0
KAHS 201115Z 19007KT 20/18 A2978 RMK A01 T02020180  RH  087%=      5-min Rain = 0
KAHS 201116Z 19007KT 20/18 A2978 RMK A01 T02020180  RH  087%=      5-min Rain = 0
KAHS 201117Z 19007KT 20/18 A2978 RMK A01 T02020180  RH  087%=      5-min Rain = 0
KAHS 201118Z 19008KT 20/18 A2978 RMK A01 T02020180  RH  087%=      5-min Rain = 0
KAHS 201119Z 19008KT 20/18 A2978 RMK A01 T02020181  RH  087%=      5-min Rain = 0
KAHS 201120Z 19009KT 20/18 A2978 RMK A01 T02030181  RH  087%=      5-min Rain = 0
KAHS 201121Z 19008KT 20/18 A2978 RMK A01 T02040182  RH  087%=      5-min Rain = 0
KAHS 201122Z 19007KT 20/18 A2978 RMK A01 T02040182  RH  087%=      5-min Rain = 0
KAHS 201123Z 19007KT 20/18 A2978 RMK A01 T02040182  RH  087%=      5-min Rain = 0
KAHS 201124Z 19007KT 20/18 A2978 RMK A01 T02040182  RH  087%=      5-min Rain = 0
KAHS 201125Z 19006KT 21/18 A2978 RMK A01 T02050183  RH  087%=      5-min Rain = 0
KAHS 201126Z 19005KT 21/18 A2978 RMK A01 T02060183  RH  086%=      5-min Rain = 0
KAHS 201127Z 20006KT 21/18 A2978 RMK A01 T02060183  RH  086%=      5-min Rain = 0
KAHS 201128Z 20005KT 21/18 A2978 RMK A01 T02060183  RH  087%=      5-min Rain = 0
KAHS 201129Z 20006KT 21/18 A2978 RMK A01 T02060183  RH  087%=      5-min Rain = 0
KAHS 201130Z 20006KT 21/18 A2978 RMK A01 T02060183  RH  086%=      5-min Rain = 0
KAHS 201131Z 20006KT 21/18 A2978 RMK A01 T02060182  RH  086%=      5-min Rain = 0
KAHS 201132Z 20005KT 21/18 A2978 RMK A01 T02050182  RH  087%=      5-min Rain = 0
KAHS 201133Z 19005KT 21/18 A2978 RMK A01 T02050182  RH  087%=      5-min Rain = 0
KAHS 201134Z 19006KT 20/18 A2978 RMK A01 T02040182  RH  087%=      5-min Rain = 0
KAHS 201135Z 19005KT 20/18 A2978 RMK A01 T02040182  RH  087%=      5-min Rain = 0
KAHS 201136Z 19006KT 20/18 A2978 RMK A01 T02030181  RH  087%=      5-min Rain = 0
KAHS 201137Z 19006KT 20/18 A2978 RMK A01 T02030182  RH  087%=      5-min Rain = 0
KAHS 201138Z 19005KT 20/18 A2978 RMK A01 T02030181  RH  087%=      5-min Rain = 0
KAHS 201139Z 19005KT 20/18 A2978 RMK A01 T02030181  RH  087%=      5-min Rain = 0
KAHS 201140Z 19006KT 20/18 A2978 RMK A01 T02020181  RH  088%=      5-min Rain = 0
KAHS 201141Z 19005KT 20/18 A2978 RMK A01 T02020181  RH  088%=      5-min Rain = 0
KAHS 201142Z 19006KT 20/18 A2978 RMK A01 T02020181  RH  088%=      5-min Rain = 0
KAHS 201143Z 19006KT 20/18 A2978 RMK A01 T02020181  RH  088%=      5-min Rain = 0
KAHS 201144Z 19006KT 20/18 A2978 RMK A01 T02020181  RH  088%=      5-min Rain = 0
KAHS 201145Z 19006KT 20/18 A2978 RMK A01 T02020181  RH  088%=      5-min Rain = 0
KAHS 201146Z 19006KT 20/18 A2978 RMK A01 T02020181  RH  087%=      5-min Rain = 0
KAHS 201147Z 19006KT 20/18 A2978 RMK A01 T02020181  RH  087%=      5-min Rain = 0
KAHS 201148Z 20006KT 20/18 A2978 RMK A01 T02020180  RH  087%=      5-min Rain = 0
KAHS 201149Z 20006KT 20/18 A2978 RMK A01 T02020180  RH  087%=      5-min Rain = 0
KAHS 201150Z 20005KT 20/18 A2978 RMK A01 T02020181  RH  087%=      5-min Rain = 0
KAHS 201151Z 21006KT 20/18 A2978 RMK A01 T02020181  RH  087%=      5-min Rain = 0
KAHS 201152Z 22005KT 20/18 A2978 RMK A01 T02030181  RH  087%=      5-min Rain = 0
KAHS 201153Z 24005KT 20/18 A2978 RMK A01 T02030181  RH  087%=      5-min Rain = 0
KAHS 201154Z 26005KT 20/18 A2979 RMK A01 T02030180  RH  087%=      5-min Rain = 0
KAHS 201155Z 26006KT 20/18 A2979 RMK A01 T02030181  RH  087%=      5-min Rain = 0
KAHS 201156Z 27005KT 20/18 A2979 RMK A01 T02030181  RH  087%=      5-min Rain = 0
KAHS 201157Z 25005KT 20/18 A2979 RMK A01 T02020181  RH  087%=      5-min Rain = 0
KAHS 201158Z 24004KT 20/18 A2979 RMK A01 T02020180  RH  087%=      5-min Rain = 0
KAHS 201159Z 23005KT 20/18 A2978 RMK A01 T02020181  RH  088%=      5-min Rain = 0
KAHS 201200Z 22004KT 20/18 A2978 RMK A01 T02020181  RH  088%=      5-min Rain = 0
KAHS 201201Z 23003KT 20/18 A2978 RMK A01 T02020181  RH  088%=      5-min Rain = 0
KAHS 201202Z 25002KT 20/18 A2978 RMK A01 T02020181  RH  088%=      5-min Rain = 0
KAHS 201203Z 30003KT 20/18 A2979 RMK A01 T02020181  RH  087%=      5-min Rain = 0
KAHS 201204Z 32005KT 20/18 A2979 RMK A01 T02010180  RH  088%=      5-min Rain = 0
KAHS 201205Z 32005KT 20/18 A2979 RMK A01 T02000180  RH  088%=      5-min Rain = 0
KAHS 201206Z 32004KT 20/18 A2979 RMK A01 T01990180  RH  089%=      5-min Rain = 0
KAHS 201207Z 29002KT 20/18 A2979 RMK A01 T01990181  RH  089%=      5-min Rain = 0
KAHS 201208Z 21002KT 20/18 A2978 RMK A01 T01990180  RH  089%=      5-min Rain = 0
KAHS 201209Z 21003KT 20/18 A2978 RMK A01 T01990180  RH  089%=      5-min Rain = 0
KAHS 201210Z 21003KT 20/18 A2978 RMK A01 T01990181  RH  089%=      5-min Rain = 0
KAHS 201211Z 21002KT 20/18 A2978 RMK A01 T01990181  RH  089%=      5-min Rain = 0
KAHS 201212Z 23002KT 20/18 A2978 RMK A01 T01990181  RH  089%=      5-min Rain = 0
KAHS 201213Z 25002KT 20/18 A2978 RMK A01 T01990181  RH  089%=      5-min Rain = 0
KAHS 201214Z 27003KT 20/18 A2978 RMK A01 T01990181  RH  089%=      5-min Rain = 0
KAHS 201215Z 28003KT 20/18 A2978 RMK A01 T01990181  RH  089%=      5-min Rain = 0
KAHS 201216Z 27004KT 20/18 A2978 RMK A01 T01980181  RH  090%=      5-min Rain = 0
KAHS 201217Z 27004KT 20/18 A2978 RMK A01 T01980181  RH  090%=      5-min Rain = 0
KAHS 201218Z 26004KT 20/18 A2978 RMK A01 T01980181  RH  090%=      5-min Rain = 0
KAHS 201219Z 26004KT 20/18 A2978 RMK A01 T01970180  RH  090%=      5-min Rain = 0
KAHS 201220Z 27004KT 20/18 A2978 RMK A01 T01970181  RH  090%=      5-min Rain = 0
KAHS 201221Z 28003KT 20/18 A2978 RMK A01 T01970181  RH  090%=      5-min Rain = 0
KAHS 201222Z 28003KT 20/18 A2978 RMK A01 T01980181  RH  090%=      5-min Rain = 0
KAHS 201223Z 28003KT 20/18 A2978 RMK A01 T01980181  RH  090%=      5-min Rain = 0
KAHS 201224Z 27002KT 20/18 A2978 RMK A01 T01990182  RH  090%=      5-min Rain = 0
KAHS 201225Z 27001KT 20/18 A2978 RMK A01 T01990182  RH  090%=      5-min Rain = 0
KAHS 201226Z 25003KT 20/18 A2978 RMK A01 T02000182  RH  090%=      5-min Rain = 0
KAHS 201227Z 24003KT 20/18 A2978 RMK A01 T02000182  RH  089%=      5-min Rain = 0
KAHS 201228Z 24003KT 20/18 A2978 RMK A01 T02010182  RH  089%=      5-min Rain = 0
KAHS 201229Z 23003KT 20/18 A2978 RMK A01 T02010182  RH  089%=      5-min Rain = 0
KAHS 201230Z 23004KT 20/18 A2978 RMK A01 T02020182  RH  089%=      5-min Rain = 0
KAHS 201231Z 22003KT 20/18 A2978 RMK A01 T02020182  RH  088%=      5-min Rain = 0
KAHS 201232Z 22004KT 20/18 A2978 RMK A01 T02030183  RH  088%=      5-min Rain = 0
KAHS 201233Z 22005KT 20/18 A2978 RMK A01 T02030182  RH  088%=      5-min Rain = 0
KAHS 201234Z 22005KT 20/18 A2978 RMK A01 T02040183  RH  088%=      5-min Rain = 0
KAHS 201235Z 22005KT 20/18 A2978 RMK A01 T02040183  RH  088%=      5-min Rain = 0
KAHS 201236Z 23005KT 21/18 A2978 RMK A01 T02050183  RH  087%=      5-min Rain = 0
KAHS 201237Z 23006KT 21/18 A2978 RMK A01 T02050184  RH  088%=      5-min Rain = 0
KAHS 201238Z 23005KT 21/18 A2978 RMK A01 T02060184  RH  087%=      5-min Rain = 0
KAHS 201239Z 23005KT 21/18 A2978 RMK A01 T02060184  RH  087%=      5-min Rain = 0
KAHS 201240Z 23004KT 21/19 A2978 RMK A01 T02070185  RH  087%=      5-min Rain = 0
KAHS 201241Z 23004KT 21/19 A2978 RMK A01 T02070185  RH  087%=      5-min Rain = 0
KAHS 201242Z 24003KT 21/19 A2979 RMK A01 T02080185  RH  087%=      5-min Rain = 0
KAHS 201243Z 25004KT 21/19 A2979 RMK A01 T02090186  RH  087%=      5-min Rain = 0
KAHS 201244Z 26003KT 21/19 A2979 RMK A01 T02090185  RH  086%=      5-min Rain = 0
KAHS 201245Z 25003KT 21/19 A2979 RMK A01 T02100186  RH  086%=      5-min Rain = 0
KAHS 201246Z 27003KT 21/19 A2979 RMK A01 T02110187  RH  086%=      5-min Rain = 0
KAHS 201247Z 26002KT 21/19 A2979 RMK A01 T02110187  RH  086%=      5-min Rain = 0
KAHS 201248Z 26001KT 21/19 A2979 RMK A01 T02120187  RH  086%=      5-min Rain = 0
KAHS 201249Z 24002KT 21/19 A2979 RMK A01 T02130188  RH  085%=      5-min Rain = 0
KAHS 201250Z 24002KT 21/19 A2979 RMK A01 T02130187  RH  085%=      5-min Rain = 0
KAHS 201251Z 25002KT 21/19 A2979 RMK A01 T02140188  RH  085%=      5-min Rain = 0
KAHS 201252Z 24001KT 21/19 A2979 RMK A01 T02140189  RH  085%=      5-min Rain = 0
KAHS 201253Z 24002KT 22/19 A2979 RMK A01 T02150189  RH  085%=      5-min Rain = 0
KAHS 201254Z 23002KT 22/19 A2979 RMK A01 T02160190  RH  085%=      5-min Rain = 0
KAHS 201255Z 24002KT 22/19 A2979 RMK A01 T02170190  RH  084%=      5-min Rain = 0
KAHS 201256Z 24002KT 22/19 A2979 RMK A01 T02170190  RH  084%=      5-min Rain = 0
KAHS 201257Z 24002KT 22/19 A2979 RMK A01 T02180190  RH  084%=      5-min Rain = 0
KAHS 201258Z 23002KT 22/19 A2979 RMK A01 T02180191  RH  084%=      5-min Rain = 0
KAHS 201259Z 23002KT 22/19 A2979 RMK A01 T02190191  RH  084%=      5-min Rain = 0
KAHS 201300Z 23002KT 22/19 A2979 RMK A01 T02190191  RH  084%=      5-min Rain = 0
KAHS 201301Z 22003KT 22/19 A2979 RMK A01 T02200192  RH  084%=      5-min Rain = 0
KAHS 201302Z 22003KT 22/19 A2979 RMK A01 T02200192  RH  084%=      5-min Rain = 0
KAHS 201303Z 23004KT 22/19 A2979 RMK A01 T02210191  RH  083%=      5-min Rain = 0
KAHS 201304Z 22003KT 22/19 A2979 RMK A01 T02210192  RH  083%=      5-min Rain = 0
KAHS 201305Z 22004KT 22/19 A2979 RMK A01 T02220193  RH  084%=      5-min Rain = 0
KAHS 201306Z 23003KT 22/19 A2979 RMK A01 T02230192  RH  083%=      5-min Rain = 0
KAHS 201307Z 24005KT 22/19 A2979 RMK A01 T02240193  RH  083%=      5-min Rain = 0
KAHS 201308Z 22003KT 22/19 A2979 RMK A01 T02240190  RH  081%=      5-min Rain = 0
KAHS 201309Z 23002KT 23/19 A2979 RMK A01 T02250192  RH  082%=      5-min Rain = 0
KAHS 201310Z 22004KT 23/19 A2979 RMK A01 T02260193  RH  082%=      5-min Rain = 0
KAHS 201311Z 23005KT 23/19 A2979 RMK A01 T02260190  RH  080%=      5-min Rain = 0
KAHS 201312Z 23006KT 23/19 A2979 RMK A01 T02260189  RH  080%=      5-min Rain = 0
KAHS 201313Z 22004KT 23/19 A2979 RMK A01 T02270189  RH  079%=      5-min Rain = 0
KAHS 201314Z 23004KT 23/19 A2979 RMK A01 T02280190  RH  079%=      5-min Rain = 0
KAHS 201315Z 22005KT 23/19 A2979 RMK A01 T02280190  RH  079%=      5-min Rain = 0
KAHS 201316Z 23005KT 23/19 A2979 RMK A01 T02290189  RH  078%=      5-min Rain = 0
KAHS 201317Z 23004KT 23/19 A2979 RMK A01 T02290188  RH  077%=      5-min Rain = 0
KAHS 201318Z 23004KT 23/19 A2979 RMK A01 T02300189  RH  077%=      5-min Rain = 0
KAHS 201319Z 22006KT 23/19 A2979 RMK A01 T02310188  RH  077%=      5-min Rain = 0
KAHS 201320Z 24004KT 23/19 A2979 RMK A01 T02320188  RH  076%=      5-min Rain = 0
KAHS 201321Z 24004KT 23/19 A2979 RMK A01 T02330190  RH  077%=      5-min Rain = 0
KAHS 201322Z 24005KT 23/19 A2979 RMK A01 T02340189  RH  076%=      5-min Rain = 0
KAHS 201323Z 24005KT 23/19 A2979 RMK A01 T02340186  RH  075%=      5-min Rain = 0
KAHS 201324Z 24005KT 23/19 A2979 RMK A01 T02340188  RH  075%=      5-min Rain = 0
KAHS 201325Z 24007KT 24/19 A2979 RMK A01 T02350186  RH  074%=      5-min Rain = 0
KAHS 201326Z 24006KT 24/19 A2979 RMK A01 T02350185  RH  074%=      5-min Rain = 0
KAHS 201327Z 23007KT 24/19 A2979 RMK A01 T02350185  RH  074%=      5-min Rain = 0
KAHS 201328Z 23006KT 24/19 A2979 RMK A01 T02350186  RH  074%=      5-min Rain = 0
KAHS 201329Z 23006KT 24/19 A2979 RMK A01 T02350186  RH  074%=      5-min Rain = 0
KAHS 201330Z 23005KT 24/19 A2979 RMK A01 T02360188  RH  075%=      5-min Rain = 0
KAHS 201331Z 23008KT 24/19 A2979 RMK A01 T02360188  RH  074%=      5-min Rain = 0
KAHS 201332Z 23008KT 24/19 A2979 RMK A01 T02360186  RH  073%=      5-min Rain = 0
KAHS 201333Z 22007KT 24/19 A2979 RMK A01 T02360185  RH  073%=      5-min Rain = 0
KAHS 201334Z 22007KT 24/19 A2979 RMK A01 T02370186  RH  073%=      5-min Rain = 0
KAHS 201335Z 23008KT 24/19 A2979 RMK A01 T02370186  RH  073%=      5-min Rain = 0
KAHS 201336Z 23008KT 24/19 A2979 RMK A01 T02370186  RH  073%=      5-min Rain = 0
KAHS 201337Z 22007KT 24/18 A2979 RMK A01 T02370183  RH  072%=      5-min Rain = 0
KAHS 201338Z 22008KT 24/19 A2979 RMK A01 T02380186  RH  073%=      5-min Rain = 0
KAHS 201339Z 22010KT 24/18 A2979 RMK A01 T02380181  RH  070%=      5-min Rain = 0
KAHS 201340Z 23009KT 24/18 A2979 RMK A01 T02380179  RH  069%=      5-min Rain = 0
KAHS 201341Z 23007KT 24/18 A2979 RMK A01 T02380180  RH  070%=      5-min Rain = 0
KAHS 201342Z 23009KT 24/18 A2979 RMK A01 T02390178  RH  069%=      5-min Rain = 0
KAHS 201343Z 22010KT 24/17 A2979 RMK A01 T02390174  RH  067%=      5-min Rain = 0
KAHS 201344Z 22012KT 24/17 A2979 RMK A01 T02400174  RH  066%=      5-min Rain = 0
KAHS 201345Z 23009G14KT 24/17 A2979 RMK A01 T02410171  RH  065%=      5-min Rain = 0
KAHS 201346Z 23009KT 24/17 A2979 RMK A01 T02420171  RH  065%=      5-min Rain = 0
KAHS 201347Z 24011KT 24/17 A2979 RMK A01 T02430167  RH  063%=      5-min Rain = 0
KAHS 201348Z 24010KT 24/17 A2979 RMK A01 T02440168  RH  062%=      5-min Rain = 0
KAHS 201349Z 24010KT 25/17 A2979 RMK A01 T02450165  RH  061%=      5-min Rain = 0
KAHS 201350Z 24012KT 25/17 A2979 RMK A01 T02450166  RH  061%=      5-min Rain = 0
KAHS 201351Z 24011KT 25/16 A2979 RMK A01 T02450164  RH  061%=      5-min Rain = 0
KAHS 201352Z 24010KT 25/17 A2979 RMK A01 T02460165  RH  061%=      5-min Rain = 0
KAHS 201353Z 23010KT 25/17 A2979 RMK A01 T02460165  RH  061%=      5-min Rain = 0
KAHS 201354Z 23011KT 25/16 A2979 RMK A01 T02460163  RH  060%=      5-min Rain = 0
KAHS 201355Z 23011KT 25/16 A2979 RMK A01 T02470161  RH  059%=      5-min Rain = 0
KAHS 201356Z 23012KT 25/16 A2979 RMK A01 T02470160  RH  059%=      5-min Rain = 0
KAHS 201357Z 23009KT 25/16 A2979 RMK A01 T02470160  RH  058%=      5-min Rain = 0
KAHS 201358Z 23009KT 25/16 A2979 RMK A01 T02480162  RH  059%=      5-min Rain = 0
KAHS 201359Z 24010G15KT 25/16 A2979 RMK A01 T02490162  RH  058%=      5-min Rain = 0
KAHS 201400Z 24011KT 25/16 A2979 RMK A01 T02490159  RH  057%=      5-min Rain = 0
KAHS 201401Z 24012KT 25/16 A2979 RMK A01 T02500159  RH  057%=      5-min Rain = 0
KAHS 201402Z 24011KT 25/16 A2979 RMK A01 T02500158  RH  056%=      5-min Rain = 0
KAHS 201403Z 24010KT 25/16 A2979 RMK A01 T02510159  RH  057%=      5-min Rain = 0
KAHS 201404Z 24011KT 25/16 A2979 RMK A01 T02510162  RH  058%=      5-min Rain = 0
KAHS 201405Z 24012KT 25/16 A2979 RMK A01 T02520161  RH  057%=      5-min Rain = 0
KAHS 201406Z 24012KT 25/16 A2979 RMK A01 T02520160  RH  057%=      5-min Rain = 0
KAHS 201407Z 25011KT 25/16 A2979 RMK A01 T02530162  RH  057%=      5-min Rain = 0
KAHS 201408Z 24013KT 25/16 A2979 RMK A01 T02530159  RH  056%=      5-min Rain = 0
KAHS 201409Z 24012KT 25/16 A2979 RMK A01 T02540158  RH  055%=      5-min Rain = 0
KAHS 201410Z 24013KT 25/16 A2979 RMK A01 T02540155  RH  054%=      5-min Rain = 0
KAHS 201411Z 24011KT 25/16 A2979 RMK A01 T02540161  RH  056%=      5-min Rain = 0
KAHS 201412Z 24011KT 25/16 A2979 RMK A01 T02540160  RH  056%=      5-min Rain = 0
KAHS 201413Z 23012KT 26/16 A2979 RMK A01 T02550158  RH  055%=      5-min Rain = 0
KAHS 201414Z 24010KT 26/16 A2979 RMK A01 T02560162  RH  056%=      5-min Rain = 0
KAHS 201415Z 23009KT 26/16 A2979 RMK A01 T02560164  RH  057%=      5-min Rain = 0
KAHS 201416Z 23009KT 26/16 A2979 RMK A01 T02570164  RH  056%=      5-min Rain = 0
KAHS 201417Z 23010KT 26/16 A2979 RMK A01 T02580163  RH  056%=      5-min Rain = 0
KAHS 201418Z 23008KT 26/16 A2979 RMK A01 T02590162  RH  055%=      5-min Rain = 0
KAHS 201419Z 23009KT 26/16 A2979 RMK A01 T02600161  RH  055%=      5-min Rain = 0
KAHS 201420Z 23010KT 26/16 A2979 RMK A01 T02600160  RH  054%=      5-min Rain = 0
KAHS 201421Z 23009KT 26/16 A2979 RMK A01 T02600158  RH  053%=      5-min Rain = 0
KAHS 201422Z 23009KT 26/16 A2979 RMK A01 T02610161  RH  054%=      5-min Rain = 0
KAHS 201423Z 23009KT 26/16 A2979 RMK A01 T02610162  RH  054%=      5-min Rain = 0
KAHS 201424Z 23009KT 26/16 A2979 RMK A01 T02620162  RH  054%=      5-min Rain = 0
KAHS 201425Z 22008KT 26/16 A2979 RMK A01 T02620161  RH  054%=      5-min Rain = 0
KAHS 201426Z 23010KT 26/16 A2979 RMK A01 T02630163  RH  054%=      5-min Rain = 0
KAHS 201427Z 22010KT 26/16 A2979 RMK A01 T02640162  RH  053%=      5-min Rain = 0
KAHS 201428Z 22011KT 26/16 A2979 RMK A01 T02640156  RH  051%=      5-min Rain = 0
KAHS 201429Z 23011KT 26/16 A2979 RMK A01 T02640156  RH  052%=      5-min Rain = 0
KAHS 201430Z 22010KT 26/16 A2979 RMK A01 T02640156  RH  052%=      5-min Rain = 0
KAHS 201431Z 23009KT 26/16 A2979 RMK A01 T02640159  RH  053%=      5-min Rain = 0
KAHS 201432Z 23010KT 26/16 A2979 RMK A01 T02640155  RH  051%=      5-min Rain = 0
KAHS 201433Z 23010KT 27/16 A2979 RMK A01 T02650156  RH  051%=      5-min Rain = 0
KAHS 201434Z 23010KT 27/16 A2979 RMK A01 T02660156  RH  051%=      5-min Rain = 0
KAHS 201435Z 22008KT 27/16 A2979 RMK A01 T02670160  RH  052%=      5-min Rain = 0
KAHS 201436Z 23012KT 27/16 A2979 RMK A01 T02680159  RH  051%=      5-min Rain = 0
KAHS 201437Z 23010KT 27/16 A2979 RMK A01 T02670158  RH  051%=      5-min Rain = 0
KAHS 201438Z 23008KT 27/16 A2979 RMK A01 T02680160  RH  052%=      5-min Rain = 0
KAHS 201439Z 24008KT 27/17 A2979 RMK A01 T02700165  RH  053%=      5-min Rain = 0
KAHS 201440Z 24009KT 27/16 A2979 RMK A01 T02700160  RH  051%=      5-min Rain = 0
KAHS 201441Z 23009KT 27/16 A2979 RMK A01 T02710160  RH  051%=      5-min Rain = 0
KAHS 201442Z 23008KT 27/16 A2979 RMK A01 T02710160  RH  051%=      5-min Rain = 0
KAHS 201443Z 23008KT 27/16 A2979 RMK A01 T02710163  RH  051%=      5-min Rain = 0
KAHS 201444Z 23009KT 27/16 A2979 RMK A01 T02720164  RH  052%=      5-min Rain = 0
KAHS 201445Z 23010KT 27/16 A2979 RMK A01 T02730158  RH  050%=      5-min Rain = 0
KAHS 201446Z 23007KT 27/16 A2979 RMK A01 T02730164  RH  051%=      5-min Rain = 0
KAHS 201447Z 24006KT 27/17 A2979 RMK A01 T02740167  RH  052%=      5-min Rain = 0
KAHS 201448Z 24007KT 28/17 A2979 RMK A01 T02760172  RH  053%=      5-min Rain = 0
KAHS 201449Z 25008KT 28/17 A2979 RMK A01 T02770172  RH  053%=      5-min Rain = 0
KAHS 201450Z 25009KT 28/17 A2979 RMK A01 T02770165  RH  051%=      5-min Rain = 0
KAHS 201451Z 25009KT 28/17 A2979 RMK A01 T02770168  RH  051%=      5-min Rain = 0
KAHS 201452Z 24007KT 28/16 A2979 RMK A01 T02760163  RH  050%=      5-min Rain = 0
KAHS 201453Z 25006KT 28/18 A2979 RMK A01 T02770176  RH  054%=      5-min Rain = 0
KAHS 201454Z 26005KT 28/18 A2979 RMK A01 T02780181  RH  055%=      5-min Rain = 0
KAHS 201455Z 25007KT 28/18 A2979 RMK A01 T02790181  RH  055%=      5-min Rain = 0
KAHS 201456Z 26007KT 28/18 A2979 RMK A01 T02800178  RH  054%=      5-min Rain = 0
KAHS 201457Z 25008KT 28/18 A2979 RMK A01 T02790175  RH  053%=      5-min Rain = 0
KAHS 201458Z 25007KT 28/17 A2979 RMK A01 T02790174  RH  053%=      5-min Rain = 0
KAHS 201459Z 25008KT 28/18 A2979 RMK A01 T02790175  RH  053%=      5-min Rain = 0
KAHS 201500Z 24007KT 28/18 A2979 RMK A01 T02800175  RH  053%=      5-min Rain = 0
KAHS 201501Z 24008KT 28/17 A2979 RMK A01 T02810173  RH  052%=      5-min Rain = 0
KAHS 201502Z 25007KT 28/18 A298 RMK A01 T02820180  RH  054%=      5-min Rain = 0
KAHS 201503Z 26007KT 28/18 A298 RMK A01 T02810177  RH  053%=      5-min Rain = 0
KAHS 201504Z 26008KT 28/17 A298 RMK A01 T02800173  RH  052%=      5-min Rain = 0
KAHS 201505Z 26008KT 28/18 A298 RMK A01 T02800175  RH  053%=      5-min Rain = 0
KAHS 201506Z 26008KT 28/17 A298 RMK A01 T02800173  RH  052%=      5-min Rain = 0
KAHS 201507Z 26007KT 28/17 A298 RMK A01 T02800172  RH  052%=      5-min Rain = 0
KAHS 201508Z 26008KT 28/17 A298 RMK A01 T02800171  RH  051%=      5-min Rain = 0
KAHS 201509Z 26006KT 28/17 A298 RMK A01 T02810172  RH  051%=      5-min Rain = 0
KAHS 201510Z 26006KT 28/17 A298 RMK A01 T02830173  RH  051%=      5-min Rain = 0
KAHS 201511Z 26005KT 28/17 A298 RMK A01 T02830174  RH  052%=      5-min Rain = 0
KAHS 201512Z 26005KT 28/18 A2979 RMK A01 T02840178  RH  052%=      5-min Rain = 0
KAHS 201513Z 28006KT 29/18 A2979 RMK A01 T02860181  RH  053%=      5-min Rain = 0
KAHS 201514Z 28006KT 29/18 A2979 RMK A01 T02860178  RH  052%=      5-min Rain = 0
KAHS 201515Z 28006KT 29/18 A2979 RMK A01 T02850176  RH  052%=      5-min Rain = 0
KAHS 201516Z 27005KT 29/18 A2979 RMK A01 T02850176  RH  052%=      5-min Rain = 0
KAHS 201517Z 28004KT 29/18 A2979 RMK A01 T02870179  RH  052%=      5-min Rain = 0
KAHS 201518Z 27004KT 29/18 A2979 RMK A01 T02890179  RH  052%=      5-min Rain = 0
KAHS 201519Z 27004KT 29/18 A2979 RMK A01 T02890177  RH  051%=      5-min Rain = 0
KAHS 201520Z 27005KT 29/18 A2979 RMK A01 T02890175  RH  050%=      5-min Rain = 0
KAHS 201521Z 26005KT 29/18 A2979 RMK A01 T02890175  RH  050%=      5-min Rain = 0
KAHS 201522Z 28004KT 29/18 A2979 RMK A01 T02920179  RH  051%=      5-min Rain = 0
KAHS 201523Z 26005KT 29/17 A2979 RMK A01 T02940174  RH  048%=      5-min Rain = 0
KAHS 201524Z 25005KT 30/17 A298 RMK A01 T02960171  RH  047%=      5-min Rain = 0
KAHS 201525Z 25005KT 30/17 A2979 RMK A01 T02980170  RH  046%=      5-min Rain = 0
KAHS 201526Z 26005KT 30/17 A2979 RMK A01 T02990165  RH  045%=      5-min Rain = 0
KAHS 201527Z 27006KT 30/16 A2979 RMK A01 T02990164  RH  044%=      5-min Rain = 0
KAHS 201528Z 26006KT 30/16 A2979 RMK A01 T02990163  RH  044%=      5-min Rain = 0
KAHS 201529Z 26006KT 30/16 A2979 RMK A01 T03000159  RH  042%=      5-min Rain = 0
KAHS 201530Z 25006KT 30/15 A2979 RMK A01 T03000153  RH  041%=      5-min Rain = 0
KAHS 201531Z 24005KT 30/16 A2979 RMK A01 T03020163  RH  043%=      5-min Rain = 0
KAHS 201532Z 24005KT 30/16 A2979 RMK A01 T03020158  RH  042%=      5-min Rain = 0
KAHS 201533Z 23007KT 30/16 A2979 RMK A01 T03010160  RH  043%=      5-min Rain = 0
KAHS 201534Z 24007KT 30/15 A2979 RMK A01 T03010152  RH  040%=      5-min Rain = 0
KAHS 201535Z 24008KT 30/15 A2979 RMK A01 T03020149  RH  039%=      5-min Rain = 0
KAHS 201536Z 25007KT 30/15 A2979 RMK A01 T03030147  RH  039%=      5-min Rain = 0
KAHS 201537Z 24006KT 30/16 A2979 RMK A01 T03040155  RH  040%=      5-min Rain = 0
KAHS 201538Z 25007KT 30/15 A2979 RMK A01 T03040154  RH  040%=      5-min Rain = 0
KAHS 201539Z 24006KT 30/16 A2979 RMK A01 T03040156  RH  041%=      5-min Rain = 0
KAHS 201540Z 24007KT 31/16 A2979 RMK A01 T03050159  RH  041%=      5-min Rain = 0
KAHS 201541Z 24007KT 30/15 A2979 RMK A01 T03040153  RH  040%=      5-min Rain = 0
KAHS 201542Z 23007KT 31/16 A2979 RMK A01 T03050160  RH  042%=      5-min Rain = 0
KAHS 201543Z 23008KT 31/15 A2979 RMK A01 T03050154  RH  040%=      5-min Rain = 0
KAHS 201544Z 23007KT 30/15 A2979 RMK A01 T03040152  RH  040%=      5-min Rain = 0
KAHS 201545Z 24009KT 30/15 A2979 RMK A01 T03040154  RH  040%=      5-min Rain = 0
KAHS 201546Z 24007KT 30/15 A2979 RMK A01 T03040153  RH  040%=      5-min Rain = 0
KAHS 201547Z 24007KT 30/16 A2979 RMK A01 T03040156  RH  041%=      5-min Rain = 0
KAHS 201548Z 23007KT 31/16 A2979 RMK A01 T03060156  RH  040%=      5-min Rain = 0
KAHS 201549Z 23006KT 31/16 A2979 RMK A01 T03060158  RH  041%=      5-min Rain = 0
KAHS 201550Z 24005KT 31/16 A2979 RMK A01 T03070155  RH  040%=      5-min Rain = 0
KAHS 201551Z 25004KT 31/16 A2979 RMK A01 T03080161  RH  041%=      5-min Rain = 0
KAHS 201552Z 24006KT 31/16 A2979 RMK A01 T03100163  RH  041%=      5-min Rain = 0
KAHS 201553Z 27005KT 31/16 A2979 RMK A01 T03120164  RH  041%=      5-min Rain = 0
KAHS 201554Z 25006KT 31/15 A2979 RMK A01 T03120153  RH  038%=      5-min Rain = 0
KAHS 201555Z 25006KT 31/15 A2979 RMK A01 T03120152  RH  038%=      5-min Rain = 0
KAHS 201556Z 25005KT 31/15 A2979 RMK A01 T03130146  RH  036%=      5-min Rain = 0
KAHS 201557Z 26005KT 32/15 A2979 RMK A01 T03150149  RH  037%=      5-min Rain = 0
KAHS 201558Z 27006KT 32/15 A2979 RMK A01 T03170147  RH  036%=      5-min Rain = 0
KAHS 201559Z 25006KT 32/15 A2979 RMK A01 T03170147  RH  036%=      5-min Rain = 0
KAHS 201600Z 25004KT 32/15 A2979 RMK A01 T03180148  RH  036%=      5-min Rain = 0
KAHS 201601Z 25005KT 32/14 A2979 RMK A01 T03190140  RH  034%=      5-min Rain = 0
KAHS 201602Z 24004KT 32/15 A2979 RMK A01 T03210145  RH  034%=      5-min Rain = 0
KAHS 201603Z 26005KT 32/14 A2979 RMK A01 T03220137  RH  033%=      5-min Rain = 0
KAHS 201604Z 26007KT 32/13 A2979 RMK A01 T03220130  RH  031%=      5-min Rain = 0
KAHS 201605Z 26007KT 32/13 A2979 RMK A01 T03220127  RH  030%=      5-min Rain = 0
KAHS 201606Z 25007KT 32/12 A2979 RMK A01 T03220124  RH  030%=      5-min Rain = 0
KAHS 201607Z 26007KT 32/13 A2979 RMK A01 T03220126  RH  030%=      5-min Rain = 0
KAHS 201608Z 26007KT 32/12 A2979 RMK A01 T03230124  RH  030%=      5-min Rain = 0
KAHS 201609Z 25005KT 32/13 A2979 RMK A01 T03240131  RH  031%=      5-min Rain = 0
KAHS 201610Z 24006KT 33/13 A2979 RMK A01 T03260133  RH  031%=      5-min Rain = 0
KAHS 201611Z 22006KT 33/13 A2979 RMK A01 T03250125  RH  029%=      5-min Rain = 0
KAHS 201612Z 21007KT 33/12 A2979 RMK A01 T03260123  RH  029%=      5-min Rain = 0
KAHS 201613Z 21009KT 33/12 A2979 RMK A01 T03250119  RH  028%=      5-min Rain = 0
KAHS 201614Z 22010KT 32/11 A2979 RMK A01 T03240112  RH  027%=      5-min Rain = 0
KAHS 201615Z 22007KT 32/12 A2979 RMK A01 T03240117  RH  028%=      5-min Rain = 0
KAHS 201616Z 22011KT 33/12 A2979 RMK A01 T03250115  RH  028%=      5-min Rain = 0
KAHS 201617Z 22009KT 33/11 A2979 RMK A01 T03250111  RH  027%=      5-min Rain = 0
KAHS 201618Z 22008KT 33/11 A2979 RMK A01 T03260114  RH  027%=      5-min Rain = 0
KAHS 201619Z 23009KT 33/11 A2979 RMK A01 T03260110  RH  027%=      5-min Rain = 0
KAHS 201620Z 22007KT 33/11 A2979 RMK A01 T03260109  RH  026%=      5-min Rain = 0
KAHS 201621Z 21009KT 33/12 A2979 RMK A01 T03270119  RH  028%=      5-min Rain = 0
KAHS 201622Z 21008KT 33/12 A2979 RMK A01 T03280117  RH  028%=      5-min Rain = 0
KAHS 201623Z 21010KT 33/11 A2979 RMK A01 T03280113  RH  027%=      5-min Rain = 0
KAHS 201624Z 23006KT 33/12 A2979 RMK A01 T03290118  RH  028%=      5-min Rain = 0
KAHS 201625Z 22006KT 33/13 A2979 RMK A01 T03310127  RH  029%=      5-min Rain = 0
KAHS 201626Z 22010KT 33/11 A2979 RMK A01 T03310110  RH  026%=      5-min Rain = 0
KAHS 201627Z 22008KT 33/11 A2979 RMK A01 T03300112  RH  026%=      5-min Rain = 0
KAHS 201628Z 22011KT 33/12 A2979 RMK A01 T03310116  RH  027%=      5-min Rain = 0
KAHS 201629Z 22010KT 33/11 A2979 RMK A01 T03310109  RH  026%=      5-min Rain = 0
KAHS 201630Z 22009KT 33/11 A2979 RMK A01 T03320114  RH  027%=      5-min Rain = 0
KAHS 201631Z 24009KT 33/11 A2979 RMK A01 T03310108  RH  026%=      5-min Rain = 0
KAHS 201632Z 23010KT 33/11 A2979 RMK A01 T03310111  RH  026%=      5-min Rain = 0
KAHS 201633Z 22011KT 33/11 A2979 RMK A01 T03310108  RH  026%=      5-min Rain = 0
KAHS 201634Z 21010KT 33/11 A2979 RMK A01 T03310106  RH  025%=      5-min Rain = 0
KAHS 201635Z 22013KT 33/11 A2979 RMK A01 T03320105  RH  025%=      5-min Rain = 0
KAHS 201641Z 22012KT 33/11 A2979 RMK A01 T03340108  RH  025%=      5-min Rain = 0
KAHS 201642Z 22010KT 33/11 A2979 RMK A01 T03340111  RH  026%=      5-min Rain = 0
KAHS 201643Z 22014KT 33/11 A2979 RMK A01 T03340105  RH  025%=      5-min Rain = 0
KAHS 201644Z 22014G19KT 33/10 A2979 RMK A01 T03340102  RH  024%=      5-min Rain = 0
KAHS 201645Z 22011KT 34/10 A2979 RMK A01 T03350102  RH  024%=      5-min Rain = 0
KAHS 201646Z 22011KT 34/11 A2979 RMK A01 T03360107  RH  025%=      5-min Rain = 0
KAHS 201647Z 23011KT 34/11 A2979 RMK A01 T03360105  RH  024%=      5-min Rain = 0
KAHS 201648Z 23010KT 34/11 A2979 RMK A01 T03370110  RH  025%=      5-min Rain = 0
KAHS 201649Z 23009KT 34/11 A2979 RMK A01 T03370114  RH  026%=      5-min Rain = 0
KAHS 201650Z 24010KT 34/11 A2979 RMK A01 T03370113  RH  026%=      5-min Rain = 0
KAHS 201651Z 24010KT 34/12 A2979 RMK A01 T03370120  RH  027%=      5-min Rain = 0
KAHS 201652Z 23009KT 34/12 A2979 RMK A01 T03380121  RH  027%=      5-min Rain = 0
KAHS 201653Z 22009KT 34/13 A2979 RMK A01 T03400129  RH  028%=      5-min Rain = 0
KAHS 201654Z 22010KT 34/12 A2979 RMK A01 T03400118  RH  026%=      5-min Rain = 0
KAHS 201655Z 23009KT 34/12 A2979 RMK A01 T03400120  RH  026%=      5-min Rain = 0
KAHS 201656Z 23012KT 34/12 A2979 RMK A01 T03400116  RH  026%=      5-min Rain = 0
KAHS 201657Z 24010KT 34/12 A2979 RMK A01 T03390117  RH  026%=      5-min Rain = 0
KAHS 201658Z 23010KT 34/12 A2979 RMK A01 T03400121  RH  027%=      5-min Rain = 0
KAHS 201659Z 24010KT 34/12 A2979 RMK A01 T03400115  RH  026%=      5-min Rain = 0
KAHS 201700Z 24009G14KT 34/12 A2979 RMK A01 T03400124  RH  027%=      5-min Rain = 0
KAHS 201701Z 24012KT 34/12 A2979 RMK A01 T03400118  RH  026%=      5-min Rain = 0
KAHS 201702Z 24009KT 34/12 A2979 RMK A01 T03410118  RH  026%=      5-min Rain = 0
KAHS 201703Z 24010G15KT 34/12 A2979 RMK A01 T03410115  RH  025%=      5-min Rain = 0
KAHS 201704Z 24011KT 34/11 A2979 RMK A01 T03400109  RH  025%=      5-min Rain = 0
KAHS 201705Z 25011KT 34/12 A2979 RMK A01 T03400116  RH  026%=      5-min Rain = 0
KAHS 201706Z 25012KT 34/11 A2979 RMK A01 T03410111  RH  025%=      5-min Rain = 0
KAHS 201707Z 24011KT 34/11 A2979 RMK A01 T03420114  RH  025%=      5-min Rain = 0
KAHS 201708Z 24010KT 34/12 A2979 RMK A01 T03420118  RH  026%=      5-min Rain = 0
KAHS 201709Z 23011KT 34/12 A2979 RMK A01 T03430116  RH  025%=      5-min Rain = 0
KAHS 201710Z 23009KT 34/12 A2979 RMK A01 T03440120  RH  026%=      5-min Rain = 0
KAHS 201711Z 25012KT 35/12 A2979 RMK A01 T03450116  RH  025%=      5-min Rain = 0
KAHS 201712Z 24012KT 35/11 A2979 RMK A01 T03450109  RH  024%=      5-min Rain = 0
KAHS 201713Z 25011KT 35/11 A2979 RMK A01 T03450112  RH  024%=      5-min Rain = 0
KAHS 201714Z 25011KT 35/11 A2979 RMK A01 T03450110  RH  024%=      5-min Rain = 0
KAHS 201715Z 24009KT 35/12 A2979 RMK A01 T03460119  RH  025%=      5-min Rain = 0
KAHS 201716Z 23009KT 35/12 A2979 RMK A01 T03480122  RH  026%=      5-min Rain = 0
KAHS 201717Z 24006KT 35/13 A2979 RMK A01 T03500126  RH  026%=      5-min Rain = 0
KAHS 201718Z 24009KT 35/12 A2979 RMK A01 T03500122  RH  025%=      5-min Rain = 0
KAHS 201719Z 24009KT 35/12 A2979 RMK A01 T03500122  RH  025%=      5-min Rain = 0
KAHS 201720Z 24010KT 35/12 A2979 RMK A01 T03490115  RH  024%=      5-min Rain = 0
KAHS 201721Z 23011KT 35/11 A2979 RMK A01 T03480112  RH  024%=      5-min Rain = 0
KAHS 201722Z 24008KT 35/12 A2979 RMK A01 T03480118  RH  025%=      5-min Rain = 0
KAHS 201723Z 24009KT 35/12 A2979 RMK A01 T03490116  RH  024%=      5-min Rain = 0
KAHS 201724Z 24010G15KT 35/11 A2979 RMK A01 T03490114  RH  024%=      5-min Rain = 0
KAHS 201725Z 24010KT 35/11 A2979 RMK A01 T03490112  RH  024%=      5-min Rain = 0
KAHS 201726Z 24011KT 35/11 A2979 RMK A01 T03490110  RH  024%=      5-min Rain = 0
KAHS 201727Z 24009KT 35/11 A2979 RMK A01 T03490114  RH  024%=      5-min Rain = 0
KAHS 201728Z 25010KT 35/12 A2979 RMK A01 T03500115  RH  024%=      5-min Rain = 0
KAHS 201729Z 24009KT 35/12 A2979 RMK A01 T03510117  RH  024%=      5-min Rain = 0
KAHS 201730Z 25009KT 35/12 A2979 RMK A01 T03500116  RH  024%=      5-min Rain = 0
KAHS 201731Z 25008KT 35/12 A2979 RMK A01 T03520120  RH  025%=      5-min Rain = 0
KAHS 201732Z 25012KT 35/11 A2979 RMK A01 T03520113  RH  024%=      5-min Rain = 0
KAHS 201733Z 24008KT 35/11 A2979 RMK A01 T03520111  RH  023%=      5-min Rain = 0
KAHS 201734Z 24009KT 35/11 A2979 RMK A01 T03520112  RH  023%=      5-min Rain = 0
KAHS 201735Z 24009KT 35/11 A2979 RMK A01 T03520111  RH  023%=      5-min Rain = 0
KAHS 201736Z 23010KT 35/11 A2979 RMK A01 T03520113  RH  023%=      5-min Rain = 0
KAHS 201737Z 23010KT 35/11 A2979 RMK A01 T03530111  RH  023%=      5-min Rain = 0
KAHS 201738Z 22010KT 35/11 A2979 RMK A01 T03530109  RH  023%=      5-min Rain = 0
KAHS 201739Z 22008KT 36/11 A2979 RMK A01 T03550113  RH  023%=      5-min Rain = 0
KAHS 201740Z 22007KT 36/11 A2979 RMK A01 T03560114  RH  023%=      5-min Rain = 0
KAHS 201741Z 23008KT 36/11 A2979 RMK A01 T03570113  RH  023%=      5-min Rain = 0
KAHS 201742Z 24006KT 36/11 A2979 RMK A01 T03570110  RH  022%=      5-min Rain = 0
KAHS 201743Z 24008KT 36/12 A2979 RMK A01 T03590121  RH  024%=      5-min Rain = 0
KAHS 201744Z 24010KT 36/11 A2979 RMK A01 T03600114  RH  023%=      5-min Rain = 0
KAHS 201745Z 25008KT 36/11 A2979 RMK A01 T03600113  RH  022%=      5-min Rain = 0
KAHS 201746Z 23008KT 36/12 A2979 RMK A01 T03610115  RH  023%=      5-min Rain = 0
KAHS 201747Z 24008KT 36/10 A2979 RMK A01 T03610100  RH  020%=      5-min Rain = 0
KAHS 201748Z 22008KT 36/10 A2979 RMK A01 T03610097  RH  020%=      5-min Rain = 0
KAHS 201749Z 23008KT 36/10 A2979 RMK A01 T03610100  RH  021%=      5-min Rain = 0
KAHS 201750Z 26008KT 36/11 A2979 RMK A01 T03630106  RH  021%=      5-min Rain = 0
KAHS 201751Z 24006KT 36/11 A2979 RMK A01 T03640106  RH  021%=      5-min Rain = 0
KAHS 201752Z 24010KT 37/11 A2979 RMK A01 T03660105  RH  021%=      5-min Rain = 0
KAHS 201753Z 22008KT 37/10 A2979 RMK A01 T03670098  RH  020%=      5-min Rain = 0
KAHS 201754Z 23009KT 37/10 A2979 RMK A01 T03680099  RH  020%=      5-min Rain = 0
KAHS 201755Z 24007KT 37/09 A2978 RMK A01 T03670094  RH  019%=      5-min Rain = 0
KAHS 201756Z 24007KT 37/10 A2979 RMK A01 T03680100  RH  020%=      5-min Rain = 0
KAHS 201757Z 23006KT 37/10 A2978 RMK A01 T03690103  RH  020%=      5-min Rain = 0
KAHS 201758Z 23009KT 37/10 A2978 RMK A01 T03700097  RH  019%=      5-min Rain = 0
KAHS 201759Z 23009KT 37/09 A2978 RMK A01 T03690089  RH  018%=      5-min Rain = 0
KAHS 201800Z 24008KT 37/09 A2978 RMK A01 T03690089  RH  018%=      5-min Rain = 0
KAHS 201801Z 22007KT 37/10 A2978 RMK A01 T03700098  RH  019%=      5-min Rain = 0
KAHS 201802Z 22011KT 37/09 A2978 RMK A01 T03710085  RH  018%=      5-min Rain = 0
KAHS 201803Z 21010KT 37/07 A2978 RMK A01 T03700071  RH  016%=      5-min Rain = 0
KAHS 201804Z 22009KT 37/09 A2978 RMK A01 T03700085  RH  018%=      5-min Rain = 0
KAHS 201805Z 23008KT 37/09 A2978 RMK A01 T03710085  RH  018%=      5-min Rain = 0
KAHS 201806Z 23009G15KT 37/09 A2978 RMK A01 T03720085  RH  017%=      5-min Rain = 0
KAHS 201807Z 22010G15KT 37/08 A2978 RMK A01 T03720082  RH  017%=      5-min Rain = 0
KAHS 201808Z 22011KT 37/07 A2978 RMK A01 T03720072  RH  016%=      5-min Rain = 0
KAHS 201809Z 23011KT 37/06 A2978 RMK A01 T03710061  RH  015%=      5-min Rain = 0
KAHS 201810Z 23009KT 37/06 A2978 RMK A01 T03700059  RH  015%=      5-min Rain = 0
KAHS 201811Z 21009KT 37/08 A2978 RMK A01 T03710082  RH  017%=      5-min Rain = 0
KAHS 201812Z 22008KT 37/07 A2978 RMK A01 T03720074  RH  016%=      5-min Rain = 0
KAHS 201813Z 21011KT 37/08 A2978 RMK A01 T03730076  RH  016%=      5-min Rain = 0
KAHS 201814Z 22013KT 37/07 A2978 RMK A01 T03730067  RH  015%=      5-min Rain = 0
KAHS 201815Z 23010KT 37/07 A2978 RMK A01 T03720067  RH  015%=      5-min Rain = 0
KAHS 201816Z 23011KT 37/07 A2978 RMK A01 T03730065  RH  015%=      5-min Rain = 0
KAHS 201817Z 22009KT 37/07 A2978 RMK A01 T03730072  RH  016%=      5-min Rain = 0
KAHS 201818Z 21011KT 37/08 A2978 RMK A01 T03740077  RH  016%=      5-min Rain = 0
KAHS 201819Z 22010KT 38/07 A2978 RMK A01 T03750068  RH  015%=      5-min Rain = 0
KAHS 201820Z 22011KT 37/06 A2978 RMK A01 T03740060  RH  015%=      5-min Rain = 0
KAHS 201821Z 20008KT 38/08 A2978 RMK A01 T03750077  RH  016%=      5-min Rain = 0
KAHS 201822Z 20012KT 38/08 A2978 RMK A01 T03760077  RH  016%=      5-min Rain = 0
KAHS 201823Z 20012KT 38/06 A2978 RMK A01 T03750063  RH  015%=      5-min Rain = 0
KAHS 201824Z 22011KT 38/07 A2978 RMK A01 T03750068  RH  015%=      5-min Rain = 0
KAHS 201825Z 21008KT 38/07 A2978 RMK A01 T03760072  RH  016%=      5-min Rain = 0
KAHS 201826Z 21010KT 38/08 A2978 RMK A01 T03770078  RH  016%=      5-min Rain = 0
KAHS 201827Z 22009KT 38/08 A2978 RMK A01 T03780082  RH  017%=      5-min Rain = 0
KAHS 201828Z 21011KT 38/07 A2978 RMK A01 T03790074  RH  016%=      5-min Rain = 0
KAHS 201829Z 22010KT 38/07 A2978 RMK A01 T03780071  RH  015%=      5-min Rain = 0
KAHS 201830Z 21010KT 38/07 A2978 RMK A01 T03770067  RH  015%=      5-min Rain = 0
KAHS 201831Z 21011KT 38/07 A2978 RMK A01 T03760068  RH  015%=      5-min Rain = 0
KAHS 201832Z 23011G16KT 38/08 A2978 RMK A01 T03770075  RH  016%=      5-min Rain = 0
KAHS 201833Z 24013KT 38/06 A2978 RMK A01 T03770058  RH  014%=      5-min Rain = 0
KAHS 201834Z 24010G15KT 38/07 A2978 RMK A01 T03770065  RH  015%=      5-min Rain = 0
KAHS 201835Z 23012KT 38/06 A2978 RMK A01 T03770055  RH  014%=      5-min Rain = 0
KAHS 201836Z 24012KT 38/06 A2978 RMK A01 T03770060  RH  014%=      5-min Rain = 0
KAHS 201837Z 24010G16KT 38/06 A2978 RMK A01 T03780063  RH  015%=      5-min Rain = 0
KAHS 201838Z 23012KT 38/06 A2978 RMK A01 T03780064  RH  015%=      5-min Rain = 0
KAHS 201839Z 23011KT 38/06 A2978 RMK A01 T03780064  RH  015%=      5-min Rain = 0
KAHS 201840Z 22011KT 38/07 A2978 RMK A01 T03790069  RH  015%=      5-min Rain = 0
KAHS 201841Z 22014KT 38/07 A2977 RMK A01 T03790068  RH  015%=      5-min Rain = 0
KAHS 201842Z 22011KT 38/07 A2977 RMK A01 T03790066  RH  015%=      5-min Rain = 0
KAHS 201843Z 23013KT 38/06 A2977 RMK A01 T03790060  RH  014%=      5-min Rain = 0
KAHS 201844Z 24011KT 38/06 A2977 RMK A01 T03790062  RH  014%=      5-min Rain = 0
KAHS 201845Z 24013KT 38/06 A2977 RMK A01 T03800064  RH  015%=      5-min Rain = 0
KAHS 201846Z 24012G17KT 38/06 A2977 RMK A01 T03800061  RH  014%=      5-min Rain = 0
KAHS 201847Z 23013KT 38/06 A2977 RMK A01 T03800055  RH  014%=      5-min Rain = 0
KAHS 201848Z 22011KT 38/06 A2977 RMK A01 T03800057  RH  014%=      5-min Rain = 0
KAHS 201849Z 24011KT 38/06 A2977 RMK A01 T03810061  RH  014%=      5-min Rain = 0
KAHS 201850Z 23009KT 38/07 A2977 RMK A01 T03820067  RH  015%=      5-min Rain = 0
KAHS 201851Z 22009G15KT 38/08 A2977 RMK A01 T03840080  RH  016%=      5-min Rain = 0
KAHS 201852Z 23014KT 38/06 A2977 RMK A01 T03840062  RH  014%=      5-min Rain = 0
KAHS 201853Z 22011KT 38/06 A2977 RMK A01 T03830057  RH  014%=      5-min Rain = 0
KAHS 201854Z 21010KT 38/06 A2977 RMK A01 T03830063  RH  014%=      5-min Rain = 0
KAHS 201855Z 21013KT 38/05 A2977 RMK A01 T03820050  RH  013%=      5-min Rain = 0
KAHS 201856Z 20011KT 38/05 A2977 RMK A01 T03810051  RH  013%=      5-min Rain = 0
KAHS 201857Z 21010KT 38/06 A2977 RMK A01 T03820056  RH  014%=      5-min Rain = 0
KAHS 201858Z 22010KT 38/07 A2977 RMK A01 T03830073  RH  015%=      5-min Rain = 0
KAHS 201859Z 21011KT 38/06 A2977 RMK A01 T03840060  RH  014%=      5-min Rain = 0
KAHS 201900Z 22011G17KT 38/06 A2977 RMK A01 T03840060  RH  014%=      5-min Rain = 0
KAHS 201901Z 21010KT 38/05 A2977 RMK A01 T03830053  RH  013%=      5-min Rain = 0
KAHS 201902Z 20009KT 38/07 A2977 RMK A01 T03840069  RH  015%=      5-min Rain = 0
KAHS 201903Z 20013KT 38/06 A2977 RMK A01 T03840063  RH  014%=      5-min Rain = 0
KAHS 201904Z 20011KT 38/06 A2977 RMK A01 T03840060  RH  014%=      5-min Rain = 0
KAHS 201905Z 21010KT 38/06 A2977 RMK A01 T03840063  RH  014%=      5-min Rain = 0
KAHS 201906Z 21012KT 39/06 A2977 RMK A01 T03850063  RH  014%=      5-min Rain = 0
KAHS 201907Z 20010KT 39/06 A2977 RMK A01 T03850059  RH  014%=      5-min Rain = 0
KAHS 201908Z 22009KT 39/06 A2977 RMK A01 T03860064  RH  014%=      5-min Rain = 0
KAHS 201909Z 22008KT 39/06 A2977 RMK A01 T03860063  RH  014%=      5-min Rain = 0
KAHS 201910Z 22009KT 39/07 A2977 RMK A01 T03870066  RH  014%=      5-min Rain = 0
KAHS 201911Z 21012KT 39/07 A2977 RMK A01 T03870068  RH  014%=      5-min Rain = 0
KAHS 201912Z 22010KT 39/06 A2977 RMK A01 T03880064  RH  014%=      5-min Rain = 0
KAHS 201913Z 21010KT 39/06 A2977 RMK A01 T03880063  RH  014%=      5-min Rain = 0
KAHS 201914Z 23010KT 39/07 A2977 RMK A01 T03880068  RH  014%=      5-min Rain = 0
KAHS 201915Z 22010KT 39/07 A2977 RMK A01 T03890065  RH  014%=      5-min Rain = 0
KAHS 201916Z 23010KT 39/06 A2976 RMK A01 T03890061  RH  014%=      5-min Rain = 0
KAHS 201917Z 22008KT 39/07 A2976 RMK A01 T03890065  RH  014%=      5-min Rain = 0
KAHS 201918Z 22009G14KT 39/07 A2976 RMK A01 T03910074  RH  015%=      5-min Rain = 0
KAHS 201919Z 22011KT 39/06 A2976 RMK A01 T03890060  RH  013%=      5-min Rain = 0
KAHS 201920Z 22009KT 39/07 A2976 RMK A01 T03890065  RH  014%=      5-min Rain = 0
KAHS 201921Z 20008KT 39/05 A2976 RMK A01 T03880048  RH  012%=      5-min Rain = 0
KAHS 201922Z 20011KT 39/06 A2976 RMK A01 T03890061  RH  014%=      5-min Rain = 0
KAHS 201923Z 19012KT 39/06 A2976 RMK A01 T03890063  RH  014%=      5-min Rain = 0
KAHS 201924Z 20013KT 39/06 A2976 RMK A01 T03880059  RH  013%=      5-min Rain = 0
KAHS 201925Z 20011G16KT 39/06 A2976 RMK A01 T03880060  RH  013%=      5-min Rain = 0
KAHS 201926Z 21013KT 39/05 A2976 RMK A01 T03890054  RH  013%=      5-min Rain = 0
KAHS 201927Z 21008KT 39/07 A2976 RMK A01 T03900068  RH  014%=      5-min Rain = 0
KAHS 201928Z 22012KT 39/05 A2976 RMK A01 T03910054  RH  013%=      5-min Rain = 0
KAHS 201929Z 23010KT 39/05 A2976 RMK A01 T03900050  RH  012%=      5-min Rain = 0
KAHS 201930Z 23010KT 39/06 A2976 RMK A01 T03910056  RH  013%=      5-min Rain = 0
KAHS 201931Z 20011KT 39/05 A2976 RMK A01 T03910053  RH  013%=      5-min Rain = 0
KAHS 201932Z 22011KT 39/04 A2976 RMK A01 T03900044  RH  012%=      5-min Rain = 0
KAHS 201933Z 22010G17KT 39/06 A2976 RMK A01 T03910063  RH  014%=      5-min Rain = 0
KAHS 201934Z 22012KT 39/06 A2976 RMK A01 T03920059  RH  013%=      5-min Rain = 0
KAHS 201935Z 21010KT 39/05 A2976 RMK A01 T03920049  RH  012%=      5-min Rain = 0
KAHS 201936Z 21010KT 39/05 A2976 RMK A01 T03920054  RH  013%=      5-min Rain = 0
KAHS 201937Z 20012G17KT 39/05 A2976 RMK A01 T03910053  RH  013%=      5-min Rain = 0
KAHS 201938Z 20012KT 39/04 A2976 RMK A01 T03900037  RH  011%=      5-min Rain = 0
KAHS 201939Z 22011KT 39/05 A2976 RMK A01 T03910053  RH  013%=      5-min Rain = 0
KAHS 201940Z 21009G16KT 39/06 A2976 RMK A01 T03920059  RH  013%=      5-min Rain = 0
KAHS 201941Z 21009G14KT 39/06 A2976 RMK A01 T03930060  RH  013%=      5-min Rain = 0
KAHS 201942Z 21009KT 39/07 A2976 RMK A01 T03930066  RH  014%=      5-min Rain = 0
KAHS 201943Z 21007KT 40/08 A2976 RMK A01 T03950078  RH  015%=      5-min Rain = 0
KAHS 201944Z 22007KT 40/07 A2976 RMK A01 T03960074  RH  014%=      5-min Rain = 0
KAHS 201945Z 20010KT 40/07 A2976 RMK A01 T03960066  RH  013%=      5-min Rain = 0
KAHS 201946Z 20013KT 40/05 A2976 RMK A01 T03950054  RH  012%=      5-min Rain = 0
KAHS 201947Z 20010KT 39/05 A2976 RMK A01 T03930049  RH  012%=      5-min Rain = 0
KAHS 201948Z 21011KT 39/05 A2976 RMK A01 T03930054  RH  013%=      5-min Rain = 0
KAHS 201949Z 22013KT 39/04 A2975 RMK A01 T03920040  RH  012%=      5-min Rain = 0
KAHS 201950Z 20012KT 39/05 A2976 RMK A01 T03920049  RH  012%=      5-min Rain = 0
KAHS 201951Z 20011KT 39/05 A2975 RMK A01 T03920047  RH  012%=      5-min Rain = 0
KAHS 201952Z 21010KT 39/07 A2975 RMK A01 T03930066  RH  014%=      5-min Rain = 0
KAHS 201953Z 22013KT 39/05 A2975 RMK A01 T03930049  RH  012%=      5-min Rain = 0
KAHS 201954Z 21013KT 39/05 A2975 RMK A01 T03920045  RH  012%=      5-min Rain = 0
KAHS 201955Z 23009KT 39/06 A2975 RMK A01 T03930059  RH  013%=      5-min Rain = 0
KAHS 201956Z 25010KT 39/06 A2975 RMK A01 T03940060  RH  013%=      5-min Rain = 0
KAHS 201957Z 24011KT 39/05 A2975 RMK A01 T03940051  RH  012%=      5-min Rain = 0
KAHS 201958Z 22010KT 39/04 A2975 RMK A01 T03930037  RH  011%=      5-min Rain = 0
KAHS 201959Z 24012KT 39/05 A2975 RMK A01 T03930050  RH  012%=      5-min Rain = 0
KAHS 202000Z 23011KT 39/05 A2975 RMK A01 T03930050  RH  012%=      5-min Rain = 0
KAHS 202001Z 24010KT 39/06 A2975 RMK A01 T03940061  RH  013%=      5-min Rain = 0
KAHS 202002Z 22012KT 40/06 A2975 RMK A01 T03950057  RH  013%=      5-min Rain = 0
KAHS 202003Z 21013KT 39/04 A2975 RMK A01 T03930044  RH  012%=      5-min Rain = 0
KAHS 202004Z 23008KT 39/04 A2975 RMK A01 T03920040  RH  012%=      5-min Rain = 0
KAHS 202005Z 23009KT 39/05 A2975 RMK A01 T03930046  RH  012%=      5-min Rain = 0
KAHS 202006Z 23009KT 39/05 A2975 RMK A01 T03930051  RH  012%=      5-min Rain = 0
KAHS 202007Z 24009KT 39/05 A2975 RMK A01 T03930050  RH  012%=      5-min Rain = 0
KAHS 202008Z 22014KT 39/05 A2975 RMK A01 T03940050  RH  012%=      5-min Rain = 0
KAHS 202009Z 20014KT 39/05 A2975 RMK A01 T03930048  RH  012%=      5-min Rain = 0
KAHS 202010Z 22011KT 39/04 A2975 RMK A01 T03930036  RH  011%=      5-min Rain = 0
KAHS 202011Z 23008KT 39/04 A2975 RMK A01 T03930037  RH  011%=      5-min Rain = 0
KAHS 202012Z 21009KT 39/06 A2975 RMK A01 T03940058  RH  013%=      5-min Rain = 0
KAHS 202013Z 21011KT 40/05 A2975 RMK A01 T03950048  RH  012%=      5-min Rain = 0
KAHS 202014Z 22008KT 39/03 A2975 RMK A01 T03940034  RH  011%=      5-min Rain = 0
KAHS 202015Z 22008KT 40/04 A2975 RMK A01 T03950042  RH  012%=      5-min Rain = 0
KAHS 202016Z 22011KT 40/05 A2975 RMK A01 T03960049  RH  012%=      5-min Rain = 0
KAHS 202017Z 22011KT 40/05 A2975 RMK A01 T03960049  RH  012%=      5-min Rain = 0
KAHS 202018Z 22015KT 40/04 A2975 RMK A01 T03960041  RH  011%=      5-min Rain = 0
KAHS 202019Z 22014KT 39/03 A2975 RMK A01 T03940031  RH  011%=      5-min Rain = 0
KAHS 202020Z 22009KT 39/04 A2975 RMK A01 T03940043  RH  012%=      5-min Rain = 0
KAHS 202021Z 21011KT 39/04 A2975 RMK A01 T03940041  RH  011%=      5-min Rain = 0
KAHS 202022Z 22012KT 39/04 A2975 RMK A01 T03940039  RH  011%=      5-min Rain = 0
KAHS 202023Z 21012KT 39/04 A2975 RMK A01 T03940038  RH  011%=      5-min Rain = 0
KAHS 202024Z 22009KT 40/05 A2975 RMK A01 T03960053  RH  012%=      5-min Rain = 0
KAHS 202025Z 21011KT 40/05 A2975 RMK A01 T03970046  RH  012%=      5-min Rain = 0
KAHS 202026Z 21008KT 40/04 A2975 RMK A01 T03960041  RH  011%=      5-min Rain = 0
KAHS 202027Z 22010KT 40/04 A2974 RMK A01 T03960038  RH  011%=      5-min Rain = 0
KAHS 202028Z 22012G17KT 40/04 A2974 RMK A01 T03960039  RH  011%=      5-min Rain = 0
KAHS 202029Z 21013KT 40/04 A2974 RMK A01 T03950042  RH  011%=      5-min Rain = 0
KAHS 202030Z 21013KT 40/04 A2974 RMK A01 T03950037  RH  011%=      5-min Rain = 0
KAHS 202031Z 21011KT 40/04 A2974 RMK A01 T03950040  RH  011%=      5-min Rain = 0
KAHS 202032Z 21011KT 40/04 A2974 RMK A01 T03950040  RH  011%=      5-min Rain = 0
KAHS 202033Z 21011KT 40/04 A2974 RMK A01 T03950038  RH  011%=      5-min Rain = 0
KAHS 202034Z 21010KT 40/05 A2974 RMK A01 T03950048  RH  012%=      5-min Rain = 0
KAHS 202035Z 21010KT 40/04 A2974 RMK A01 T03950042  RH  012%=      5-min Rain = 0
KAHS 202036Z 20011KT 40/05 A2974 RMK A01 T03950049  RH  012%=      5-min Rain = 0
KAHS 202037Z 20007KT 40/07 A2974 RMK A01 T03970072  RH  014%=      5-min Rain = 0
KAHS 202038Z 20010KT 40/07 A2974 RMK A01 T03980066  RH  013%=      5-min Rain = 0
KAHS 202039Z 21011KT 40/06 A2974 RMK A01 T03980060  RH  013%=      5-min Rain = 0
KAHS 202040Z 22010G16KT 40/07 A2974 RMK A01 T03990071  RH  014%=      5-min Rain = 0
KAHS 202041Z 21013G18KT 40/04 A2974 RMK A01 T03980043  RH  011%=      5-min Rain = 0
KAHS 202042Z 21012KT 40/03 A2974 RMK A01 T03970034  RH  011%=      5-min Rain = 0
KAHS 202043Z 21010KT 40/04 A2974 RMK A01 T03960036  RH  011%=      5-min Rain = 0
KAHS 202044Z 21013KT 40/04 A2974 RMK A01 T03950037  RH  011%=      5-min Rain = 0
KAHS 202045Z 22012KT 40/03 A2974 RMK A01 T03950033  RH  011%=      5-min Rain = 0
KAHS 202046Z 22012KT 40/03 A2974 RMK A01 T03950032  RH  011%=      5-min Rain = 0
KAHS 202047Z 20013KT 40/02 A2974 RMK A01 T03950023  RH  010%=      5-min Rain = 0
KAHS 202048Z 22010KT 40/03 A2974 RMK A01 T03950030  RH  011%=      5-min Rain = 0
KAHS 202049Z 22005KT 40/03 A2974 RMK A01 T03950029  RH  010%=      5-min Rain = 0
KAHS 202050Z 21005KT 40/04 A2973 RMK A01 T03970038  RH  011%=      5-min Rain = 0
KAHS 202051Z 21011KT 40/04 A2974 RMK A01 T03980041  RH  011%=      5-min Rain = 0
KAHS 202052Z 21011KT 40/04 A2974 RMK A01 T03970039  RH  011%=      5-min Rain = 0
KAHS 202053Z 20011KT 40/04 A2973 RMK A01 T03960043  RH  012%=      5-min Rain = 0
KAHS 202054Z 22010KT 40/05 A2973 RMK A01 T03970046  RH  012%=      5-min Rain = 0
KAHS 202055Z 21011KT 40/05 A2973 RMK A01 T03980046  RH  012%=      5-min Rain = 0
KAHS 202056Z 20010KT 40/04 A2973 RMK A01 T03980042  RH  011%=      5-min Rain = 0
KAHS 202057Z 20010KT 40/04 A2973 RMK A01 T03970038  RH  011%=      5-min Rain = 0
KAHS 202058Z 20008KT 40/04 A2973 RMK A01 T03970039  RH  011%=      5-min Rain = 0
KAHS 202059Z 21012KT 40/04 A2973 RMK A01 T03970036  RH  011%=      5-min Rain = 0
KAHS 202100Z 21014KT 40/04 A2973 RMK A01 T03960037  RH  011%=      5-min Rain = 0
KAHS 202101Z 21013KT 40/04 A2973 RMK A01 T03960038  RH  011%=      5-min Rain = 0
KAHS 202102Z 21009KT 40/03 A2973 RMK A01 T03950025  RH  010%=      5-min Rain = 0
KAHS 202103Z 20008KT 40/05 A2973 RMK A01 T03960051  RH  012%=      5-min Rain = 0
KAHS 202104Z 21008KT 40/04 A2973 RMK A01 T03970041  RH  011%=      5-min Rain = 0
KAHS 202105Z 19009KT 40/05 A2973 RMK A01 T03970051  RH  012%=      5-min Rain = 0
KAHS 202106Z 21006KT 40/05 A2973 RMK A01 T03980053  RH  012%=      5-min Rain = 0
KAHS 202107Z 19006KT 40/06 A2973 RMK A01 T03990056  RH  012%=      5-min Rain = 0
KAHS 202108Z 16007KT 40/05 A2973 RMK A01 T04010052  RH  012%=      5-min Rain = 0
KAHS 202109Z 17009KT 40/05 A2973 RMK A01 T04020054  RH  012%=      5-min Rain = 0
KAHS 202110Z 18009KT 40/04 A2973 RMK A01 T04010040  RH  011%=      5-min Rain = 0
KAHS 202111Z 20007KT 40/05 A2973 RMK A01 T04000049  RH  012%=      5-min Rain = 0
KAHS 202112Z 19010KT 40/05 A2973 RMK A01 T03990048  RH  012%=      5-min Rain = 0
KAHS 202113Z 18008G13KT 40/05 A2973 RMK A01 T03980047  RH  012%=      5-min Rain = 0
KAHS 202114Z 18013KT 40/05 A2973 RMK A01 T03980049  RH  012%=      5-min Rain = 0
KAHS 202115Z 18012KT 40/04 A2973 RMK A01 T03970041  RH  011%=      5-min Rain = 0
KAHS 202116Z 18011KT 40/04 A2973 RMK A01 T03970036  RH  011%=      5-min Rain = 0
KAHS 202117Z 19011KT 40/04 A2973 RMK A01 T03980044  RH  012%=      5-min Rain = 0
KAHS 202118Z 19012KT 40/05 A2973 RMK A01 T03970050  RH  012%=      5-min Rain = 0
KAHS 202119Z 19011KT 40/05 A2973 RMK A01 T03970048  RH  012%=      5-min Rain = 0
KAHS 202120Z 19011KT 40/05 A2973 RMK A01 T03960046  RH  012%=      5-min Rain = 0
KAHS 202121Z 19009KT 40/05 A2972 RMK A01 T03960050  RH  012%=      5-min Rain = 0
KAHS 202122Z 19015G20KT 40/04 A2972 RMK A01 T03960039  RH  011%=      5-min Rain = 0
KAHS 202123Z 19013KT 40/04 A2972 RMK A01 T03950044  RH  012%=      5-min Rain = 0
KAHS 202124Z 19011KT 40/05 A2972 RMK A01 T03950047  RH  012%=      5-min Rain = 0
KAHS 202125Z 18011KT 40/05 A2972 RMK A01 T03950046  RH  012%=      5-min Rain = 0
KAHS 202126Z 19011KT 40/05 A2972 RMK A01 T03960052  RH  012%=      5-min Rain = 0
KAHS 202127Z 19014KT 40/04 A2972 RMK A01 T03950039  RH  011%=      5-min Rain = 0
KAHS 202128Z 21011G16KT 40/04 A2972 RMK A01 T03950036  RH  011%=      5-min Rain = 0
KAHS 202129Z 19007KT 40/05 A2972 RMK A01 T03960054  RH  012%=      5-min Rain = 0
KAHS 202130Z 18009KT 40/06 A2972 RMK A01 T03970060  RH  013%=      5-min Rain = 0
KAHS 202131Z 19013KT 40/05 A2972 RMK A01 T03970051  RH  012%=      5-min Rain = 0
KAHS 202132Z 19010KT 40/04 A2972 RMK A01 T03970041  RH  011%=      5-min Rain = 0
KAHS 202133Z 19010KT 40/05 A2972 RMK A01 T03970047  RH  012%=      5-min Rain = 0
KAHS 202134Z 19009KT 40/04 A2972 RMK A01 T03970044  RH  011%=      5-min Rain = 0
KAHS 202135Z 18008KT 40/04 A2972 RMK A01 T03970044  RH  012%=      5-min Rain = 0
KAHS 202136Z 18008KT 40/04 A2972 RMK A01 T03990042  RH  011%=      5-min Rain = 0
KAHS 202137Z 19008KT 40/04 A2972 RMK A01 T03990043  RH  011%=      5-min Rain = 0
KAHS 202138Z 20009KT 40/04 A2972 RMK A01 T03990041  RH  011%=      5-min Rain = 0
KAHS 202139Z 18010KT 40/05 A2972 RMK A01 T03990054  RH  012%=      5-min Rain = 0
KAHS 202140Z 18010KT 40/05 A2972 RMK A01 T03980049  RH  012%=      5-min Rain = 0
KAHS 202141Z 18008KT 40/05 A2972 RMK A01 T03980047  RH  012%=      5-min Rain = 0
KAHS 202142Z 19009KT 40/05 A2972 RMK A01 T03980050  RH  012%=      5-min Rain = 0
KAHS 202143Z 20008KT 40/05 A2972 RMK A01 T03970045  RH  012%=      5-min Rain = 0
KAHS 202144Z 21011KT 40/05 A2972 RMK A01 T03980050  RH  012%=      5-min Rain = 0
KAHS 202145Z 21011KT 40/03 A2972 RMK A01 T03960025  RH  010%=      5-min Rain = 0
KAHS 202146Z 20009KT 40/04 A2972 RMK A01 T03960039  RH  011%=      5-min Rain = 0
KAHS 202147Z 19010KT 40/05 A2972 RMK A01 T03970046  RH  012%=      5-min Rain = 0
KAHS 202148Z 19008KT 40/06 A2972 RMK A01 T03970055  RH  012%=      5-min Rain = 0
KAHS 202149Z 18009KT 40/06 A2972 RMK A01 T03980055  RH  012%=      5-min Rain = 0
KAHS 202150Z 19010KT 40/06 A2972 RMK A01 T03980062  RH  013%=      5-min Rain = 0
KAHS 202151Z 21010KT 40/06 A2972 RMK A01 T03970060  RH  013%=      5-min Rain = 0
KAHS 202152Z 21010KT 40/06 A2972 RMK A01 T03970056  RH  013%=      5-min Rain = 0
KAHS 202153Z 22009KT 40/04 A2972 RMK A01 T03980036  RH  011%=      5-min Rain = 0
KAHS 202154Z 21009KT 40/05 A2972 RMK A01 T03980045  RH  012%=      5-min Rain = 0
KAHS 202155Z 20009KT 40/04 A2972 RMK A01 T03980040  RH  011%=      5-min Rain = 0
KAHS 202156Z 19009KT 40/04 A2971 RMK A01 T03980043  RH  011%=      5-min Rain = 0
KAHS 202157Z 19008KT 40/05 A2972 RMK A01 T03980050  RH  012%=      5-min Rain = 0
KAHS 202158Z 19012KT 40/05 A2971 RMK A01 T03980051  RH  012%=      5-min Rain = 0
KAHS 202159Z 19011KT 40/04 A2971 RMK A01 T03970044  RH  011%=      5-min Rain = 0
KAHS 202200Z 19012KT 40/05 A2971 RMK A01 T03970047  RH  012%=      5-min Rain = 0
KAHS 202201Z 19009KT 40/05 A2971 RMK A01 T03960050  RH  012%=      5-min Rain = 0
KAHS 202202Z 18011KT 40/07 A2971 RMK A01 T03970065  RH  013%=      5-min Rain = 0
KAHS 202203Z 20010KT 40/07 A2971 RMK A01 T03970066  RH  013%=      5-min Rain = 0
KAHS 202204Z 19012KT 40/06 A2971 RMK A01 T03960055  RH  013%=      5-min Rain = 0
KAHS 202205Z 19012KT 40/04 A2971 RMK A01 T03950044  RH  012%=      5-min Rain = 0
KAHS 202206Z 20010KT 40/04 A2971 RMK A01 T03950044  RH  012%=      5-min Rain = 0
KAHS 202207Z 20011KT 40/05 A2971 RMK A01 T03960050  RH  012%=      5-min Rain = 0
KAHS 202208Z 21011KT 40/04 A2971 RMK A01 T03960041  RH  011%=      5-min Rain = 0
KAHS 202209Z 23010KT 40/03 A2971 RMK A01 T03970034  RH  011%=      5-min Rain = 0
KAHS 202210Z 22009KT 40/03 A2971 RMK A01 T03970028  RH  010%=      5-min Rain = 0
KAHS 202211Z 19007KT 40/04 A2971 RMK A01 T03980044  RH  011%=      5-min Rain = 0
KAHS 202212Z 18008KT 40/05 A2971 RMK A01 T03980048  RH  012%=      5-min Rain = 0
KAHS 202213Z 18008KT 40/05 A2971 RMK A01 T03980049  RH  012%=      5-min Rain = 0
KAHS 202214Z 18008KT 40/04 A2971 RMK A01 T03990042  RH  011%=      5-min Rain = 0
KAHS 202215Z 18009KT 40/04 A2971 RMK A01 T03990043  RH  011%=      5-min Rain = 0
KAHS 202216Z 20010KT 40/04 A2971 RMK A01 T03980037  RH  011%=      5-min Rain = 0
KAHS 202217Z 21012KT 40/04 A2971 RMK A01 T03970038  RH  011%=      5-min Rain = 0
KAHS 202218Z 22011KT 40/04 A2971 RMK A01 T03970036  RH  011%=      5-min Rain = 0
KAHS 202219Z 21009KT 40/03 A2971 RMK A01 T03980029  RH  010%=      5-min Rain = 0
KAHS 202220Z 19008KT 40/05 A2971 RMK A01 T03980050  RH  012%=      5-min Rain = 0
KAHS 202221Z 20009KT 40/03 A2971 RMK A01 T03980034  RH  011%=      5-min Rain = 0
KAHS 202222Z 21009KT 40/04 A2971 RMK A01 T03980041  RH  011%=      5-min Rain = 0
KAHS 202223Z 21009KT 40/04 A2971 RMK A01 T03970037  RH  011%=      5-min Rain = 0
KAHS 202224Z 19009KT 40/04 A2971 RMK A01 T03970041  RH  011%=      5-min Rain = 0
KAHS 202225Z 19009KT 40/05 A2971 RMK A01 T03970048  RH  012%=      5-min Rain = 0
KAHS 202226Z 19010KT 40/06 A2971 RMK A01 T03970063  RH  013%=      5-min Rain = 0
KAHS 202227Z 19011KT 40/07 A2971 RMK A01 T03960067  RH  014%=      5-min Rain = 0
KAHS 202228Z 20010KT 40/07 A2971 RMK A01 T03950067  RH  014%=      5-min Rain = 0
KAHS 202229Z 18010KT 39/07 A2971 RMK A01 T03940067  RH  014%=      5-min Rain = 0
KAHS 202230Z 18009KT 40/07 A2971 RMK A01 T03950071  RH  014%=      5-min Rain = 0
KAHS 202231Z 18011KT 39/08 A2971 RMK A01 T03940075  RH  015%=      5-min Rain = 0
KAHS 202232Z 19011KT 39/07 A2971 RMK A01 T03930072  RH  014%=      5-min Rain = 0
KAHS 202233Z 19012KT 39/06 A2971 RMK A01 T03930064  RH  014%=      5-min Rain = 0
KAHS 202234Z 19010KT 39/06 A2971 RMK A01 T03930061  RH  013%=      5-min Rain = 0
KAHS 202235Z 19011KT 39/05 A2971 RMK A01 T03930049  RH  012%=      5-min Rain = 0
KAHS 202236Z 20009KT 39/04 A2971 RMK A01 T03930043  RH  012%=      5-min Rain = 0
KAHS 202237Z 19008KT 39/04 A2971 RMK A01 T03940040  RH  011%=      5-min Rain = 0
KAHS 202238Z 18009KT 39/03 A2971 RMK A01 T03940032  RH  011%=      5-min Rain = 0
KAHS 202239Z 19008KT 40/04 A2971 RMK A01 T03950037  RH  011%=      5-min Rain = 0
KAHS 202240Z 18007KT 40/05 A2971 RMK A01 T03950048  RH  012%=      5-min Rain = 0
KAHS 202241Z 18008KT 40/04 A2971 RMK A01 T03950040  RH  011%=      5-min Rain = 0
KAHS 202242Z 19009KT 40/04 A2971 RMK A01 T03950037  RH  011%=      5-min Rain = 0
KAHS 202243Z 19009KT 40/05 A2971 RMK A01 T03950046  RH  012%=      5-min Rain = 0
KAHS 202244Z 18008KT 40/04 A2971 RMK A01 T03950041  RH  011%=      5-min Rain = 0
KAHS 202245Z 19011KT 40/05 A2971 RMK A01 T03950046  RH  012%=      5-min Rain = 0
KAHS 202246Z 19008KT 40/05 A2971 RMK A01 T03950048  RH  012%=      5-min Rain = 0
KAHS 202247Z 19007KT 39/04 A2971 RMK A01 T03940042  RH  012%=      5-min Rain = 0
KAHS 202248Z 18006KT 39/05 A2971 RMK A01 T03940046  RH  012%=      5-min Rain = 0
KAHS 202249Z 20007KT 40/06 A2971 RMK A01 T03950058  RH  013%=      5-min Rain = 0
KAHS 202250Z 19006KT 39/05 A2971 RMK A01 T03930052  RH  012%=      5-min Rain = 0
KAHS 202251Z 19005KT 39/06 A2971 RMK A01 T03910062  RH  013%=      5-min Rain = 0
KAHS 202252Z 19008KT 39/07 A2971 RMK A01 T03920071  RH  014%=      5-min Rain = 0
KAHS 202253Z 19010KT 39/05 A2971 RMK A01 T03920051  RH  012%=      5-min Rain = 0
KAHS 202254Z 19009KT 39/05 A2971 RMK A01 T03920046  RH  012%=      5-min Rain = 0
KAHS 202255Z 18007KT 39/05 A297 RMK A01 T03910052  RH  013%=      5-min Rain = 0
KAHS 202256Z 17009KT 39/07 A2971 RMK A01 T03920067  RH  014%=      5-min Rain = 0
KAHS 202257Z 17008KT 39/06 A297 RMK A01 T03930059  RH  013%=      5-min Rain = 0
KAHS 202258Z 17009KT 39/07 A297 RMK A01 T03930072  RH  014%=      5-min Rain = 0
KAHS 202259Z 17009KT 39/07 A297 RMK A01 T03930070  RH  014%=      5-min Rain = 0
KAHS 202300Z 17009KT 39/07 A297 RMK A01 T03930069  RH  014%=      5-min Rain = 0
KAHS 202301Z 18011KT 39/07 A297 RMK A01 T03930067  RH  014%=      5-min Rain = 0
KAHS 202302Z 17010G15KT 39/07 A297 RMK A01 T03920068  RH  014%=      5-min Rain = 0
KAHS 202303Z 17012KT 39/05 A297 RMK A01 T03920054  RH  013%=      5-min Rain = 0
KAHS 202304Z 18011KT 39/07 A297 RMK A01 T03920065  RH  014%=      5-min Rain = 0
KAHS 202305Z 18012KT 39/05 A297 RMK A01 T03910049  RH  012%=      5-min Rain = 0
KAHS 202306Z 17012KT 39/05 A297 RMK A01 T03910052  RH  013%=      5-min Rain = 0
KAHS 202307Z 17011KT 39/04 A297 RMK A01 T03910044  RH  012%=      5-min Rain = 0
KAHS 202308Z 17013KT 39/04 A297 RMK A01 T03910039  RH  011%=      5-min Rain = 0
KAHS 202309Z 17012G17KT 39/05 A297 RMK A01 T03900050  RH  012%=      5-min Rain = 0
KAHS 202310Z 17014KT 39/04 A297 RMK A01 T03900035  RH  011%=      5-min Rain = 0
KAHS 202311Z 17010KT 39/04 A297 RMK A01 T03900044  RH  012%=      5-min Rain = 0
KAHS 202312Z 16011KT 39/05 A297 RMK A01 T03900051  RH  013%=      5-min Rain = 0
KAHS 202313Z 16010KT 39/05 A297 RMK A01 T03900047  RH  012%=      5-min Rain = 0
KAHS 202314Z 16011G16KT 39/05 A297 RMK A01 T03890047  RH  012%=      5-min Rain = 0
KAHS 202315Z 17008KT 39/06 A297 RMK A01 T03890064  RH  014%=      5-min Rain = 0
KAHS 202316Z 17008KT 39/07 A297 RMK A01 T03890068  RH  014%=      5-min Rain = 0
KAHS 202317Z 17009KT 39/06 A297 RMK A01 T03900058  RH  013%=      5-min Rain = 0
KAHS 202318Z 17008KT 39/06 A297 RMK A01 T03900059  RH  013%=      5-min Rain = 0
KAHS 202319Z 17009KT 39/06 A297 RMK A01 T03900063  RH  014%=      5-min Rain = 0
KAHS 202320Z 17008KT 39/06 A297 RMK A01 T03900061  RH  013%=      5-min Rain = 0
KAHS 202321Z 18010KT 39/06 A297 RMK A01 T03900059  RH  013%=      5-min Rain = 0
KAHS 202322Z 17010KT 39/05 A297 RMK A01 T03890054  RH  013%=      5-min Rain = 0
KAHS 202323Z 17010KT 39/04 A297 RMK A01 T03890042  RH  012%=      5-min Rain = 0
KAHS 202324Z 17007KT 39/06 A297 RMK A01 T03900056  RH  013%=      5-min Rain = 0
KAHS 202325Z 17007KT 39/06 A297 RMK A01 T03900059  RH  013%=      5-min Rain = 0
KAHS 202326Z 16008KT 39/06 A297 RMK A01 T03900064  RH  014%=      5-min Rain = 0
KAHS 202327Z 15010KT 39/06 A297 RMK A01 T03900061  RH  013%=      5-min Rain = 0
KAHS 202328Z 16008KT 39/06 A297 RMK A01 T03890061  RH  013%=      5-min Rain = 0
KAHS 202329Z 16008KT 39/06 A297 RMK A01 T03890058  RH  013%=      5-min Rain = 0
KAHS 202330Z 16009KT 39/05 A297 RMK A01 T03890048  RH  012%=      5-min Rain = 0
KAHS 202331Z 15008KT 39/06 A297 RMK A01 T03890061  RH  013%=      5-min Rain = 0
KAHS 202332Z 16009KT 39/06 A297 RMK A01 T03880059  RH  013%=      5-min Rain = 0
KAHS 202333Z 15008KT 39/05 A2969 RMK A01 T03870053  RH  013%=      5-min Rain = 0
KAHS 202334Z 15009KT 39/06 A2969 RMK A01 T03870056  RH  013%=      5-min Rain = 0
KAHS 202335Z 15007KT 39/05 A2969 RMK A01 T03870054  RH  013%=      5-min Rain = 0
KAHS 202336Z 15009KT 39/06 A2969 RMK A01 T03860062  RH  014%=      5-min Rain = 0
KAHS 202337Z 15009KT 39/06 A2969 RMK A01 T03860062  RH  014%=      5-min Rain = 0
KAHS 202338Z 15009KT 39/06 A2969 RMK A01 T03860061  RH  014%=      5-min Rain = 0
KAHS 202339Z 15008KT 39/06 A2969 RMK A01 T03850059  RH  014%=      5-min Rain = 0
KAHS 202340Z 15008KT 39/06 A2969 RMK A01 T03860064  RH  014%=      5-min Rain = 0
KAHS 202341Z 15010KT 39/06 A2969 RMK A01 T03850062  RH  014%=      5-min Rain = 0
KAHS 202342Z 15008KT 39/07 A2969 RMK A01 T03850067  RH  014%=      5-min Rain = 0
KAHS 202343Z 16008KT 39/07 A2969 RMK A01 T03850069  RH  015%=      5-min Rain = 0
KAHS 202344Z 15008KT 39/07 A2969 RMK A01 T03850068  RH  015%=      5-min Rain = 0
KAHS 202345Z 15007KT 39/07 A2969 RMK A01 T03850071  RH  015%=      5-min Rain = 0
KAHS 202346Z 15008KT 39/07 A2969 RMK A01 T03850070  RH  015%=      5-min Rain = 0
KAHS 202347Z 14006KT 39/08 A2969 RMK A01 T03850075  RH  015%=      5-min Rain = 0
KAHS 202348Z 15005KT 39/08 A2969 RMK A01 T03850084  RH  016%=      5-min Rain = 0
KAHS 202349Z 14006KT 38/08 A2969 RMK A01 T03840081  RH  016%=      5-min Rain = 0
KAHS 202350Z 15007KT 38/08 A2969 RMK A01 T03830082  RH  016%=      5-min Rain = 0
KAHS 202351Z 14006KT 38/09 A2969 RMK A01 T03830086  RH  017%=      5-min Rain = 0
KAHS 202352Z 14006KT 38/09 A2969 RMK A01 T03820094  RH  018%=      5-min Rain = 0
KAHS 202353Z 14007KT 38/09 A2969 RMK A01 T03800094  RH  018%=      5-min Rain = 0
KAHS 202354Z 15007KT 38/09 A2969 RMK A01 T03790093  RH  018%=      5-min Rain = 0
KAHS 202355Z 15008KT 38/10 A2969 RMK A01 T03780096  RH  018%=      5-min Rain = 0
KAHS 202356Z 15006KT 38/10 A2969 RMK A01 T03780098  RH  019%=      5-min Rain = 0
KAHS 202357Z 15006KT 38/09 A2969 RMK A01 T03780094  RH  018%=      5-min Rain = 0
KAHS 202358Z 15006KT 38/10 A2969 RMK A01 T03780098  RH  018%=      5-min Rain = 0
KAHS 202359Z 15006KT 38/10 A2969 RMK A01 T03780099  RH  019%=      5-min Rain = 0
KAHS 210000Z 15005KT 38/10 A2969 RMK A01 T03770099  RH  019%=      5-min Rain = 0
KAHS 210001Z 15005KT 38/11 A2969 RMK A01 T03770106  RH  020%=      5-min Rain = 0
KAHS 210002Z 14006KT 38/11 A2969 RMK A01 T03760105  RH  020%=      5-min Rain = 0
KAHS 210003Z 14005KT 38/11 A2969 RMK A01 T03750105  RH  020%=      5-min Rain = 0
KAHS 210004Z 14006KT 37/11 A2969 RMK A01 T03740105  RH  020%=      5-min Rain = 0
KAHS 210005Z 15007KT 37/10 A2969 RMK A01 T03730104  RH  020%=      5-min Rain = 0
KAHS 210006Z 14006KT 37/10 A2969 RMK A01 T03720104  RH  020%=      5-min Rain = 0
KAHS 210007Z 14005KT 37/11 A2969 RMK A01 T03720105  RH  020%=      5-min Rain = 0
KAHS 210008Z 15005KT 37/10 A2969 RMK A01 T03720103  RH  020%=      5-min Rain = 0
KAHS 210009Z 15006KT 37/11 A2969 RMK A01 T03710106  RH  020%=      5-min Rain = 0
KAHS 210010Z 14005KT 37/11 A2969 RMK A01 T03720105  RH  020%=      5-min Rain = 0
KAHS 210011Z 15005KT 37/11 A2969 RMK A01 T03720108  RH  020%=      5-min Rain = 0
KAHS 210012Z 14005KT 37/11 A2969 RMK A01 T03710111  RH  021%=      5-min Rain = 0
KAHS 210013Z 14005KT 37/11 A2969 RMK A01 T03710111  RH  021%=      5-min Rain = 0
KAHS 210014Z 14005KT 37/11 A2969 RMK A01 T03700110  RH  021%=      5-min Rain = 0
KAHS 210015Z 14006KT 37/11 A2969 RMK A01 T03700111  RH  021%=      5-min Rain = 0
KAHS 210016Z 14006KT 37/11 A2969 RMK A01 T03690112  RH  021%=      5-min Rain = 0
KAHS 210017Z 14006KT 37/11 A2969 RMK A01 T03680113  RH  022%=      5-min Rain = 0
KAHS 210018Z 14005KT 37/11 A2969 RMK A01 T03680112  RH  021%=      5-min Rain = 0
KAHS 210019Z 14005KT 37/12 A2969 RMK A01 T03680117  RH  022%=      5-min Rain = 0
KAHS 210020Z 13005KT 37/12 A2969 RMK A01 T03670116  RH  022%=      5-min Rain = 0
KAHS 210021Z 14005KT 37/12 A2969 RMK A01 T03670117  RH  022%=      5-min Rain = 0
KAHS 210022Z 13005KT 37/11 A2969 RMK A01 T03660114  RH  022%=      5-min Rain = 0
KAHS 210023Z 13006KT 37/11 A2969 RMK A01 T03660114  RH  022%=      5-min Rain = 0
KAHS 210024Z 13006KT 37/12 A2969 RMK A01 T03650115  RH  022%=      5-min Rain = 0
KAHS 210025Z 14007KT 36/11 A2969 RMK A01 T03640111  RH  022%=      5-min Rain = 0
KAHS 210026Z 14007KT 36/11 A2969 RMK A01 T03640112  RH  022%=      5-min Rain = 0
KAHS 210027Z 14006KT 36/12 A2969 RMK A01 T03640115  RH  022%=      5-min Rain = 0
KAHS 210028Z 14007KT 36/12 A2969 RMK A01 T03630117  RH  023%=      5-min Rain = 0
KAHS 210029Z 14007KT 36/12 A2969 RMK A01 T03630117  RH  023%=      5-min Rain = 0
KAHS 210030Z 14006KT 36/12 A2969 RMK A01 T03620118  RH  023%=      5-min Rain = 0
KAHS 210031Z 14006KT 36/12 A2969 RMK A01 T03610120  RH  023%=      5-min Rain = 0
KAHS 210032Z 14006KT 36/12 A2969 RMK A01 T03610121  RH  024%=      5-min Rain = 0
KAHS 210033Z 14005KT 36/11 A2969 RMK A01 T03610112  RH  022%=      5-min Rain = 0
KAHS 210034Z 14005KT 36/12 A2969 RMK A01 T03610116  RH  023%=      5-min Rain = 0
KAHS 210035Z 14005KT 36/12 A2969 RMK A01 T03610119  RH  023%=      5-min Rain = 0
KAHS 210036Z 14006KT 36/12 A2969 RMK A01 T03610119  RH  023%=      5-min Rain = 0
KAHS 210037Z 14006KT 36/12 A2969 RMK A01 T03600120  RH  023%=      5-min Rain = 0
KAHS 210038Z 14006KT 36/12 A2969 RMK A01 T03590117  RH  023%=      5-min Rain = 0
KAHS 210039Z 14007KT 36/12 A2969 RMK A01 T03590118  RH  023%=      5-min Rain = 0
KAHS 210040Z 14007KT 36/12 A2969 RMK A01 T03580117  RH  023%=      5-min Rain = 0
KAHS 210041Z 15008KT 36/12 A2969 RMK A01 T03570117  RH  024%=      5-min Rain = 0
KAHS 210042Z 15008KT 36/11 A2969 RMK A01 T03570114  RH  023%=      5-min Rain = 0
KAHS 210043Z 14007KT 36/11 A2969 RMK A01 T03570112  RH  023%=      5-min Rain = 0
KAHS 210044Z 14007KT 36/12 A2969 RMK A01 T03570117  RH  023%=      5-min Rain = 0
KAHS 210045Z 14007KT 36/12 A2969 RMK A01 T03560119  RH  024%=      5-min Rain = 0
KAHS 210046Z 14006KT 36/12 A2969 RMK A01 T03560118  RH  024%=      5-min Rain = 0
KAHS 210047Z 14006KT 36/12 A2969 RMK A01 T03550120  RH  024%=      5-min Rain = 0
KAHS 210048Z 14005KT 35/12 A2969 RMK A01 T03540119  RH  024%=      5-min Rain = 0
KAHS 210049Z 14005KT 35/12 A2969 RMK A01 T03540119  RH  024%=      5-min Rain = 0
KAHS 210050Z 14005KT 35/12 A2969 RMK A01 T03540123  RH  025%=      5-min Rain = 0
KAHS 210051Z 15005KT 35/13 A2969 RMK A01 T03530125  RH  025%=      5-min Rain = 0
KAHS 210052Z 15005KT 35/13 A2969 RMK A01 T03520125  RH  025%=      5-min Rain = 0
KAHS 210053Z 14006KT 35/12 A2969 RMK A01 T03510123  RH  025%=      5-min Rain = 0
KAHS 210054Z 14006KT 35/12 A2969 RMK A01 T03500123  RH  025%=      5-min Rain = 0
KAHS 210055Z 14006KT 35/12 A2969 RMK A01 T03500124  RH  026%=      5-min Rain = 0
KAHS 210056Z 14005KT 35/13 A2969 RMK A01 T03490125  RH  026%=      5-min Rain = 0
KAHS 210057Z 14006KT 35/13 A2969 RMK A01 T03480126  RH  026%=      5-min Rain = 0
KAHS 210058Z 14006KT 35/13 A2969 RMK A01 T03470128  RH  027%=      5-min Rain = 0
KAHS 210059Z 14006KT 35/13 A2969 RMK A01 T03460131  RH  027%=      5-min Rain = 0
KAHS 210100Z 14006KT 35/13 A2969 RMK A01 T03450132  RH  028%=      5-min Rain = 0
KAHS 210101Z 14005KT 34/13 A2969 RMK A01 T03440134  RH  028%=      5-min Rain = 0
KAHS 210102Z 14006KT 34/13 A2969 RMK A01 T03430132  RH  028%=      5-min Rain = 0
KAHS 210103Z 14005KT 34/13 A2969 RMK A01 T03420134  RH  029%=      5-min Rain = 0
KAHS 210104Z 14005KT 34/13 A2969 RMK A01 T03420132  RH  028%=      5-min Rain = 0
KAHS 210105Z 14005KT 34/13 A2969 RMK A01 T03410131  RH  028%=      5-min Rain = 0
KAHS 210106Z 14005KT 34/13 A2969 RMK A01 T03410134  RH  029%=      5-min Rain = 0
KAHS 210107Z 14005KT 34/13 A2969 RMK A01 T03400134  RH  029%=      5-min Rain = 0
KAHS 210108Z 14005KT 34/13 A2969 RMK A01 T03390133  RH  029%=      5-min Rain = 0
KAHS 210109Z 14005KT 34/14 A2969 RMK A01 T03390135  RH  029%=      5-min Rain = 0
KAHS 210110Z 14005KT 34/14 A2969 RMK A01 T03380138  RH  030%=      5-min Rain = 0
KAHS 210111Z 14005KT 34/14 A2969 RMK A01 T03370139  RH  030%=      5-min Rain = 0
KAHS 210112Z 14005KT 34/14 A2969 RMK A01 T03360140  RH  031%=      5-min Rain = 0
KAHS 210113Z 14005KT 34/14 A2969 RMK A01 T03360140  RH  031%=      5-min Rain = 0
KAHS 210114Z 14005KT 34/14 A2969 RMK A01 T03350142  RH  031%=      5-min Rain = 0
KAHS 210115Z 14005KT 33/14 A2969 RMK A01 T03340143  RH  032%=      5-min Rain = 0
KAHS 210116Z 14005KT 33/14 A2969 RMK A01 T03330143  RH  032%=      5-min Rain = 0
KAHS 210117Z 14005KT 33/14 A2969 RMK A01 T03320143  RH  032%=      5-min Rain = 0
KAHS 210118Z 14005KT 33/14 A2969 RMK A01 T03310143  RH  032%=      5-min Rain = 0
KAHS 210119Z 14005KT 33/14 A2969 RMK A01 T03310143  RH  032%=      5-min Rain = 0
KAHS 210120Z 14005KT 33/14 A2969 RMK A01 T03300143  RH  032%=      5-min Rain = 0
KAHS 210121Z 14005KT 33/14 A2969 RMK A01 T03300142  RH  032%=      5-min Rain = 0
KAHS 210122Z 14005KT 33/14 A2969 RMK A01 T03290143  RH  033%=      5-min Rain = 0
KAHS 210123Z 14005KT 33/14 A2969 RMK A01 T03290143  RH  033%=      5-min Rain = 0
KAHS 210124Z 14004KT 33/14 A2969 RMK A01 T03280144  RH  033%=      5-min Rain = 0
KAHS 210125Z 14005KT 33/14 A2969 RMK A01 T03280141  RH  032%=      5-min Rain = 0
KAHS 210126Z 14004KT 33/14 A2969 RMK A01 T03280142  RH  032%=      5-min Rain = 0
KAHS 210127Z 13004KT 33/14 A2969 RMK A01 T03280138  RH  032%=      5-min Rain = 0
KAHS 210128Z 13004KT 33/14 A2969 RMK A01 T03290137  RH  031%=      5-min Rain = 0
KAHS 210129Z 14004KT 33/14 A2969 RMK A01 T03300135  RH  031%=      5-min Rain = 0
KAHS 210130Z 13004KT 33/13 A2969 RMK A01 T03310133  RH  030%=      5-min Rain = 0
KAHS 210131Z 16003KT 33/14 A2969 RMK A01 T03320135  RH  030%=      5-min Rain = 0
KAHS 210132Z 17003KT 33/14 A2969 RMK A01 T03310141  RH  032%=      5-min Rain = 0
KAHS 210133Z 19003KT 33/14 A2969 RMK A01 T03280144  RH  033%=      5-min Rain = 0
KAHS 210134Z 19003KT 33/14 A2969 RMK A01 T03270141  RH  033%=      5-min Rain = 0
KAHS 210135Z 19003KT 33/14 A2969 RMK A01 T03270139  RH  032%=      5-min Rain = 0
KAHS 210136Z 18003KT 33/14 A2969 RMK A01 T03280138  RH  032%=      5-min Rain = 0
KAHS 210137Z 17004KT 33/14 A2969 RMK A01 T03280140  RH  032%=      5-min Rain = 0
KAHS 210138Z 16004KT 33/14 A2969 RMK A01 T03270141  RH  032%=      5-min Rain = 0
KAHS 210139Z 15005KT 33/14 A2969 RMK A01 T03260141  RH  033%=      5-min Rain = 0
KAHS 210140Z 14006KT 33/14 A2969 RMK A01 T03250140  RH  032%=      5-min Rain = 0
KAHS 210141Z 15005KT 32/14 A2969 RMK A01 T03240142  RH  033%=      5-min Rain = 0
KAHS 210142Z 14005KT 32/14 A2969 RMK A01 T03210144  RH  034%=      5-min Rain = 0
KAHS 210143Z 15006KT 32/15 A2969 RMK A01 T03190146  RH  035%=      5-min Rain = 0
KAHS 210144Z 15006KT 32/14 A2969 RMK A01 T03180143  RH  035%=      5-min Rain = 0
KAHS 210145Z 15005KT 32/14 A2969 RMK A01 T03170143  RH  035%=      5-min Rain = 0
KAHS 210146Z 15005KT 32/14 A2969 RMK A01 T03150144  RH  036%=      5-min Rain = 0
KAHS 210147Z 15005KT 31/15 A2969 RMK A01 T03130146  RH  036%=      5-min Rain = 0
KAHS 210148Z 15006KT 31/15 A2969 RMK A01 T03120145  RH  036%=      5-min Rain = 0
KAHS 210149Z 15005KT 31/15 A2969 RMK A01 T03110146  RH  037%=      5-min Rain = 0
KAHS 210150Z 15004KT 31/15 A2969 RMK A01 T03100146  RH  037%=      5-min Rain = 0
KAHS 210151Z 16004KT 31/15 A2969 RMK A01 T03090146  RH  037%=      5-min Rain = 0
KAHS 210152Z 16005KT 31/15 A2969 RMK A01 T03080145  RH  037%=      5-min Rain = 0
KAHS 210153Z 16005KT 31/15 A2969 RMK A01 T03080145  RH  037%=      5-min Rain = 0
KAHS 210154Z 15006KT 31/14 A2969 RMK A01 T03070143  RH  037%=      5-min Rain = 0
KAHS 210155Z 15006KT 31/14 A2969 RMK A01 T03070142  RH  037%=      5-min Rain = 0
KAHS 210156Z 15006KT 31/14 A2969 RMK A01 T03070141  RH  036%=      5-min Rain = 0
KAHS 210157Z 16006KT 31/14 A2969 RMK A01 T03060141  RH  037%=      5-min Rain = 0
KAHS 210158Z 16006KT 31/14 A2969 RMK A01 T03060138  RH  036%=      5-min Rain = 0
KAHS 210159Z 16006KT 31/14 A2969 RMK A01 T03060138  RH  036%=      5-min Rain = 0
KAHS 210200Z 16006KT 31/14 A2969 RMK A01 T03060139  RH  036%=      5-min Rain = 0
KAHS 210201Z 16006KT 31/14 A2969 RMK A01 T03050139  RH  036%=      5-min Rain = 0
KAHS 210202Z 16005KT 30/14 A2969 RMK A01 T03040138  RH  036%=      5-min Rain = 0
KAHS 210203Z 16005KT 30/14 A2969 RMK A01 T03040139  RH  036%=      5-min Rain = 0
KAHS 210204Z 17005KT 30/14 A2969 RMK A01 T03030138  RH  037%=      5-min Rain = 0
KAHS 210205Z 17005KT 30/14 A2969 RMK A01 T03020139  RH  037%=      5-min Rain = 0
KAHS 210206Z 17005KT 30/14 A2969 RMK A01 T03010139  RH  037%=      5-min Rain = 0
KAHS 210207Z 17005KT 30/14 A2969 RMK A01 T03000140  RH  038%=      5-min Rain = 0
KAHS 210208Z 18004KT 30/14 A2969 RMK A01 T03000138  RH  037%=      5-min Rain = 0
KAHS 210209Z 17004KT 30/14 A2969 RMK A01 T02990136  RH  037%=      5-min Rain = 0
KAHS 210210Z 18005KT 30/14 A2969 RMK A01 T03000136  RH  037%=      5-min Rain = 0
KAHS 210211Z 17005KT 30/14 A2969 RMK A01 T03010136  RH  036%=      5-min Rain = 0
KAHS 210212Z 17005KT 30/14 A2969 RMK A01 T03010137  RH  037%=      5-min Rain = 0
KAHS 210213Z 17004KT 30/14 A2969 RMK A01 T03000138  RH  037%=      5-min Rain = 0
KAHS 210214Z 18004KT 30/14 A297 RMK A01 T02990139  RH  038%=      5-min Rain = 0
KAHS 210215Z 17004KT 30/14 A297 RMK A01 T02980140  RH  038%=      5-min Rain = 0
KAHS 210216Z 17004KT 30/14 A297 RMK A01 T02970140  RH  038%=      5-min Rain = 0
KAHS 210217Z 18004KT 30/14 A297 RMK A01 T02970142  RH  039%=      5-min Rain = 0
KAHS 210218Z 18004KT 30/14 A297 RMK A01 T02960143  RH  039%=      5-min Rain = 0
KAHS 210219Z 19004KT 29/15 A297 RMK A01 T02940145  RH  040%=      5-min Rain = 0
KAHS 210220Z 19004KT 29/15 A297 RMK A01 T02920147  RH  041%=      5-min Rain = 0
KAHS 210221Z 18004KT 29/15 A297 RMK A01 T02900149  RH  042%=      5-min Rain = 0
KAHS 210222Z 18004KT 29/15 A297 RMK A01 T02890148  RH  042%=      5-min Rain = 0
KAHS 210223Z 19003KT 29/15 A297 RMK A01 T02890148  RH  042%=      5-min Rain = 0
KAHS 210224Z 19003KT 29/15 A297 RMK A01 T02880149  RH  042%=      5-min Rain = 0
KAHS 210225Z 19004KT 29/15 A297 RMK A01 T02880148  RH  043%=      5-min Rain = 0
KAHS 210226Z 19004KT 29/15 A297 RMK A01 T02880149  RH  043%=      5-min Rain = 0
KAHS 210227Z 19004KT 29/15 A297 RMK A01 T02880148  RH  043%=      5-min Rain = 0
KAHS 210228Z 18005KT 29/15 A297 RMK A01 T02880148  RH  043%=      5-min Rain = 0
KAHS 210229Z 18005KT 29/15 A297 RMK A01 T02880149  RH  043%=      5-min Rain = 0
KAHS 210230Z 18005KT 29/15 A297 RMK A01 T02870149  RH  043%=      5-min Rain = 0
KAHS 210231Z 18006KT 29/15 A297 RMK A01 T02860150  RH  043%=      5-min Rain = 0
KAHS 210232Z 18006KT 29/15 A297 RMK A01 T02850152  RH  044%=      5-min Rain = 0
KAHS 210233Z 18006KT 28/15 A297 RMK A01 T02830153  RH  045%=      5-min Rain = 0
KAHS 210234Z 18005KT 28/15 A297 RMK A01 T02820152  RH  045%=      5-min Rain = 0
KAHS 210235Z 19005KT 28/15 A297 RMK A01 T02810152  RH  045%=      5-min Rain = 0
KAHS 210236Z 19004KT 28/15 A297 RMK A01 T02800151  RH  045%=      5-min Rain = 0
KAHS 210237Z 20004KT 28/15 A297 RMK A01 T02800151  RH  045%=      5-min Rain = 0
KAHS 210238Z 20004KT 28/15 A297 RMK A01 T02790151  RH  045%=      5-min Rain = 0
KAHS 210239Z 20003KT 28/15 A297 RMK A01 T02790152  RH  046%=      5-min Rain = 0
KAHS 210240Z 21003KT 28/15 A297 RMK A01 T02770153  RH  047%=      5-min Rain = 0
KAHS 210241Z 21002KT 28/15 A297 RMK A01 T02760151  RH  047%=      5-min Rain = 0
KAHS 210242Z 20002KT 28/15 A297 RMK A01 T02750151  RH  047%=      5-min Rain = 0
KAHS 210243Z 19002KT 28/15 A297 RMK A01 T02750151  RH  047%=      5-min Rain = 0
KAHS 210244Z 18002KT 28/15 A297 RMK A01 T02750148  RH  046%=      5-min Rain = 0
KAHS 210245Z 19003KT 28/15 A297 RMK A01 T02750145  RH  045%=      5-min Rain = 0
KAHS 210246Z 19004KT 28/15 A297 RMK A01 T02760146  RH  045%=      5-min Rain = 0
KAHS 210247Z 18004KT 28/15 A297 RMK A01 T02770150  RH  046%=      5-min Rain = 0
KAHS 210248Z 17004KT 28/15 A297 RMK A01 T02770148  RH  045%=      5-min Rain = 0
KAHS 210249Z 17004KT 28/15 A297 RMK A01 T02770145  RH  044%=      5-min Rain = 0
KAHS 210250Z 17003KT 28/14 A297 RMK A01 T02780143  RH  043%=      5-min Rain = 0
KAHS 210251Z 16004KT 28/15 A297 RMK A01 T02800145  RH  044%=      5-min Rain = 0
KAHS 210252Z 17003KT 28/15 A297 RMK A01 T02810147  RH  044%=      5-min Rain = 0
KAHS 210253Z 16004KT 28/15 A297 RMK A01 T02810146  RH  044%=      5-min Rain = 0
KAHS 210254Z 16004KT 28/14 A297 RMK A01 T02820144  RH  043%=      5-min Rain = 0
KAHS 210255Z 16003KT 28/14 A297 RMK A01 T02820144  RH  043%=      5-min Rain = 0
KAHS 210256Z 17003KT 28/14 A297 RMK A01 T02820143  RH  043%=      5-min Rain = 0
KAHS 210257Z 17004KT 28/15 A297 RMK A01 T02820152  RH  045%=      5-min Rain = 0
KAHS 210258Z 16006KT 28/15 A2971 RMK A01 T02790154  RH  047%=      5-min Rain = 0
KAHS 210259Z 16005KT 28/15 A297 RMK A01 T02770154  RH  047%=      5-min Rain = 0
KAHS 210300Z 17006KT 28/15 A2971 RMK A01 T02760153  RH  047%=      5-min Rain = 0
KAHS 210301Z 17007KT 28/15 A2971 RMK A01 T02760152  RH  047%=      5-min Rain = 0
KAHS 210302Z 18009KT 28/15 A2971 RMK A01 T02750153  RH  047%=      5-min Rain = 0
KAHS 210303Z 18008KT 27/15 A2971 RMK A01 T02740149  RH  046%=      5-min Rain = 0
KAHS 210304Z 17008KT 28/15 A2971 RMK A01 T02760146  RH  045%=      5-min Rain = 0
KAHS 210305Z 17007KT 28/14 A2971 RMK A01 T02780144  RH  044%=      5-min Rain = 0
KAHS 210306Z 17007KT 28/14 A2971 RMK A01 T02790142  RH  043%=      5-min Rain = 0
KAHS 210307Z 17007KT 28/14 A2971 RMK A01 T02800141  RH  043%=      5-min Rain = 0
KAHS 210308Z 16008KT 28/14 A2971 RMK A01 T02800139  RH  042%=      5-min Rain = 0
KAHS 210309Z 17008KT 28/14 A2971 RMK A01 T02800137  RH  041%=      5-min Rain = 0
KAHS 210310Z 17008KT 28/13 A2971 RMK A01 T02820134  RH  040%=      5-min Rain = 0
KAHS 210311Z 16008KT 28/13 A2971 RMK A01 T02830132  RH  039%=      5-min Rain = 0
KAHS 210312Z 17008KT 28/13 A2971 RMK A01 T02830134  RH  040%=      5-min Rain = 0
KAHS 210313Z 17010KT 28/13 A2971 RMK A01 T02820132  RH  040%=      5-min Rain = 0
KAHS 210314Z 17010G15KT 29/13 A2971 RMK A01 T02850127  RH  038%=      5-min Rain = 0
KAHS 210315Z 18011KT 29/12 A2971 RMK A01 T02880121  RH  036%=      5-min Rain = 0
KAHS 210316Z 18010KT 29/12 A2971 RMK A01 T02920118  RH  034%=      5-min Rain = 0
KAHS 210317Z 18008KT 30/12 A2971 RMK A01 T02960115  RH  033%=      5-min Rain = 0
KAHS 210318Z 18008KT 30/12 A2971 RMK A01 T02970116  RH  033%=      5-min Rain = 0
KAHS 210319Z 17008KT 30/12 A2971 RMK A01 T02970116  RH  033%=      5-min Rain = 0
KAHS 210320Z 17008KT 30/12 A2971 RMK A01 T02960115  RH  033%=      5-min Rain = 0
KAHS 210321Z 17007KT 30/11 A2971 RMK A01 T02960114  RH  033%=      5-min Rain = 0
KAHS 210322Z 17007KT 30/11 A2971 RMK A01 T02960113  RH  032%=      5-min Rain = 0
KAHS 210323Z 18007KT 30/11 A2971 RMK A01 T02950114  RH  033%=      5-min Rain = 0
KAHS 210324Z 19008G13KT 30/11 A2972 RMK A01 T02950114  RH  033%=      5-min Rain = 0
KAHS 210325Z 18015G21KT 30/11 A2972 RMK A01 T02950114  RH  033%=      5-min Rain = 0
KAHS 210326Z 19012KT 30/11 A2972 RMK A01 T03040111  RH  030%=      5-min Rain = 0
KAHS 210327Z 20011KT 31/11 A2972 RMK A01 T03080113  RH  030%=      5-min Rain = 0
KAHS 210328Z 21010KT 31/12 A2972 RMK A01 T03100115  RH  030%=      5-min Rain = 0
KAHS 210329Z 21007G12KT 31/12 A2972 RMK A01 T03100115  RH  030%=      5-min Rain = 0
KAHS 210330Z 22008KT 31/11 A2973 RMK A01 T03090114  RH  030%=      5-min Rain = 0
KAHS 210331Z 22008KT 31/11 A2973 RMK A01 T03070113  RH  030%=      5-min Rain = 0
KAHS 210332Z 22009KT 31/11 A2973 RMK A01 T03060113  RH  030%=      5-min Rain = 0
KAHS 210333Z 21011KT 31/11 A2973 RMK A01 T03070114  RH  031%=      5-min Rain = 0
KAHS 210334Z 21009KT 31/12 A2973 RMK A01 T03070115  RH  031%=      5-min Rain = 0
KAHS 210335Z 21009KT 31/12 A2973 RMK A01 T03080116  RH  031%=      5-min Rain = 0
KAHS 210336Z 20009KT 31/12 A2973 RMK A01 T03070117  RH  031%=      5-min Rain = 0
KAHS 210337Z 21009KT 31/12 A2973 RMK A01 T03070118  RH  031%=      5-min Rain = 0
KAHS 210338Z 20008KT 31/12 A2973 RMK A01 T03060120  RH  032%=      5-min Rain = 0
KAHS 210339Z 20008KT 30/12 A2973 RMK A01 T03040121  RH  033%=      5-min Rain = 0
KAHS 210340Z 19008KT 30/12 A2973 RMK A01 T03030124  RH  033%=      5-min Rain = 0
KAHS 210341Z 19008KT 30/13 A2973 RMK A01 T03020126  RH  034%=      5-min Rain = 0
KAHS 210342Z 20007KT 30/13 A2973 RMK A01 T03000128  RH  035%=      5-min Rain = 0
KAHS 210343Z 19008KT 30/13 A2973 RMK A01 T03000129  RH  035%=      5-min Rain = 0
KAHS 210344Z 19007KT 30/13 A2973 RMK A01 T03000130  RH  035%=      5-min Rain = 0
KAHS 210345Z 19008KT 30/13 A2973 RMK A01 T03000131  RH  036%=      5-min Rain = 0
KAHS 210346Z 19009KT 30/13 A2974 RMK A01 T02990132  RH  036%=      5-min Rain = 0
KAHS 210347Z 19008KT 30/13 A2973 RMK A01 T03000134  RH  036%=      5-min Rain = 0
KAHS 210348Z 19008KT 30/14 A2974 RMK A01 T03000135  RH  036%=      5-min Rain = 0
KAHS 210349Z 20008KT 30/14 A2974 RMK A01 T03000135  RH  036%=      5-min Rain = 0
KAHS 210350Z 19007KT 30/14 A2974 RMK A01 T03000136  RH  037%=      5-min Rain = 0
KAHS 210351Z 19008KT 30/14 A2974 RMK A01 T02990136  RH  037%=      5-min Rain = 0
KAHS 210352Z 19007KT 30/14 A2974 RMK A01 T02990138  RH  037%=      5-min Rain = 0
KAHS 210353Z 18007KT 30/14 A2974 RMK A01 T02980141  RH  038%=      5-min Rain = 0
KAHS 210354Z 18008KT 30/14 A2974 RMK A01 T02980143  RH  039%=      5-min Rain = 0
KAHS 210355Z 18008KT 30/15 A2974 RMK A01 T03000146  RH  039%=      5-min Rain = 0
KAHS 210356Z 18009KT 30/15 A2974 RMK A01 T03010146  RH  039%=      5-min Rain = 0
KAHS 210357Z 18009KT 30/15 A2974 RMK A01 T03020147  RH  039%=      5-min Rain = 0
KAHS 210358Z 18009KT 30/15 A2974 RMK A01 T03020147  RH  039%=      5-min Rain = 0
KAHS 210359Z 18008KT 30/15 A2974 RMK A01 T03020147  RH  039%=      5-min Rain = 0
KAHS 210400Z 17009KT 30/15 A2974 RMK A01 T03020148  RH  039%=      5-min Rain = 0
KAHS 210401Z 17009KT 30/15 A2974 RMK A01 T03020148  RH  039%=      5-min Rain = 0
KAHS 210402Z 17008KT 30/15 A2974 RMK A01 T03010148  RH  040%=      5-min Rain = 0
KAHS 210403Z 17008KT 30/15 A2974 RMK A01 T03000149  RH  040%=      5-min Rain = 0
KAHS 210404Z 17008KT 30/15 A2974 RMK A01 T02990150  RH  040%=      5-min Rain = 0
KAHS 210405Z 17007KT 30/15 A2974 RMK A01 T02980150  RH  041%=      5-min Rain = 0
KAHS 210406Z 17009KT 30/15 A2974 RMK A01 T02970150  RH  041%=      5-min Rain = 0
KAHS 210407Z 17010KT 30/15 A2974 RMK A01 T02960151  RH  041%=      5-min Rain = 0
KAHS 210408Z 17011KT 30/15 A2974 RMK A01 T02960151  RH  041%=      5-min Rain = 0
KAHS 210409Z 18010KT 30/15 A2974 RMK A01 T02960152  RH  042%=      5-min Rain = 0
KAHS 210410Z 18010KT 30/15 A2974 RMK A01 T02960152  RH  042%=      5-min Rain = 0
KAHS 210411Z 18009KT 30/15 A2974 RMK A01 T02960153  RH  042%=      5-min Rain = 0
KAHS 210412Z 18011KT 30/15 A2974 RMK A01 T02950153  RH  042%=      5-min Rain = 0
KAHS 210413Z 18011KT 30/15 A2975 RMK A01 T02950153  RH  042%=      5-min Rain = 0
KAHS 210414Z 18010KT 30/15 A2974 RMK A01 T02960153  RH  042%=      5-min Rain = 0
KAHS 210415Z 18010KT 30/15 A2975 RMK A01 T02960153  RH  042%=      5-min Rain = 0
KAHS 210416Z 18010KT 30/15 A2975 RMK A01 T02960152  RH  042%=      5-min Rain = 0
KAHS 210417Z 18009KT 30/15 A2975 RMK A01 T02960152  RH  042%=      5-min Rain = 0
KAHS 210418Z 18010KT 30/15 A2975 RMK A01 T02960152  RH  042%=      5-min Rain = 0
KAHS 210419Z 18011KT 30/15 A2975 RMK A01 T02960152  RH  042%=      5-min Rain = 0
KAHS 210420Z 18008KT 30/15 A2975 RMK A01 T02960153  RH  042%=      5-min Rain = 0
KAHS 210421Z 18009KT 30/15 A2975 RMK A01 T02950153  RH  042%=      5-min Rain = 0
KAHS 210422Z 18009KT 30/15 A2975 RMK A01 T02950152  RH  042%=      5-min Rain = 0
KAHS 210423Z 18010KT 30/15 A2975 RMK A01 T02950153  RH  042%=      5-min Rain = 0
KAHS 210424Z 18009KT 30/15 A2975 RMK A01 T02950153  RH  042%=      5-min Rain = 0
KAHS 210425Z 18011KT 30/15 A2975 RMK A01 T02950154  RH  042%=      5-min Rain = 0
KAHS 210426Z 18011KT 30/15 A2975 RMK A01 T02960154  RH  042%=      5-min Rain = 0
KAHS 210427Z 18011KT 30/15 A2975 RMK A01 T02960154  RH  042%=      5-min Rain = 0
KAHS 210428Z 18010KT 30/16 A2975 RMK A01 T02960155  RH  042%=      5-min Rain = 0
KAHS 210429Z 18010KT 30/16 A2975 RMK A01 T02950155  RH  043%=      5-min Rain = 0
KAHS 210430Z 17010KT 30/16 A2975 RMK A01 T02950155  RH  043%=      5-min Rain = 0
KAHS 210431Z 18010KT 30/16 A2975 RMK A01 T02950156  RH  043%=      5-min Rain = 0
KAHS 210432Z 18009KT 30/16 A2975 RMK A01 T02950156  RH  043%=      5-min Rain = 0
KAHS 210433Z 18010G15KT 30/16 A2975 RMK A01 T02950157  RH  043%=      5-min Rain = 0
KAHS 210434Z 18011KT 30/16 A2975 RMK A01 T02950157  RH  043%=      5-min Rain = 0
KAHS 210435Z 19010KT 30/16 A2975 RMK A01 T02950158  RH  043%=      5-min Rain = 0
KAHS 210436Z 18011KT 30/16 A2975 RMK A01 T02950159  RH  044%=      5-min Rain = 0
KAHS 210437Z 18009KT 30/16 A2975 RMK A01 T02960159  RH  044%=      5-min Rain = 0
KAHS 210438Z 19009KT 30/16 A2975 RMK A01 T02950160  RH  044%=      5-min Rain = 0
KAHS 210439Z 19010KT 30/16 A2975 RMK A01 T02950161  RH  044%=      5-min Rain = 0
KAHS 210440Z 19011KT 30/16 A2975 RMK A01 T02950162  RH  045%=      5-min Rain = 0
KAHS 210441Z 18011KT 29/16 A2975 RMK A01 T02940163  RH  045%=      5-min Rain = 0
KAHS 210442Z 19010KT 29/16 A2975 RMK A01 T02940164  RH  045%=      5-min Rain = 0
KAHS 210443Z 19010KT 29/16 A2975 RMK A01 T02930164  RH  046%=      5-min Rain = 0
KAHS 210444Z 19009KT 29/17 A2975 RMK A01 T02930165  RH  046%=      5-min Rain = 0
KAHS 210445Z 18010KT 29/17 A2975 RMK A01 T02930166  RH  046%=      5-min Rain = 0
KAHS 210446Z 19009KT 29/17 A2975 RMK A01 T02920167  RH  047%=      5-min Rain = 0
KAHS 210447Z 18009KT 29/17 A2975 RMK A01 T02920168  RH  047%=      5-min Rain = 0
KAHS 210448Z 19010KT 29/17 A2975 RMK A01 T02920168  RH  047%=      5-min Rain = 0
KAHS 210449Z 18010G15KT 29/17 A2975 RMK A01 T02920169  RH  047%=      5-min Rain = 0
KAHS 210450Z 19012KT 29/17 A2975 RMK A01 T02930170  RH  047%=      5-min Rain = 0
KAHS 210451Z 19012KT 29/17 A2975 RMK A01 T02940171  RH  047%=      5-min Rain = 0
KAHS 210452Z 19012KT 30/17 A2975 RMK A01 T02950172  RH  048%=      5-min Rain = 0
KAHS 210453Z 18011KT 30/17 A2975 RMK A01 T02950173  RH  048%=      5-min Rain = 0
KAHS 210454Z 19011KT 30/17 A2975 RMK A01 T02960173  RH  048%=      5-min Rain = 0
KAHS 210455Z 19011KT 30/17 A2975 RMK A01 T02960174  RH  048%=      5-min Rain = 0
KAHS 210456Z 19010G15KT 30/17 A2975 RMK A01 T02960174  RH  048%=      5-min Rain = 0
KAHS 210457Z 19013KT 30/17 A2975 RMK A01 T02960174  RH  048%=      5-min Rain = 0
KAHS 210458Z 19012KT 30/17 A2975 RMK A01 T02970174  RH  048%=      5-min Rain = 0
KAHS 210459Z 18012KT 30/17 A2975 RMK A01 T02970174  RH  047%=      5-min Rain = 0

Page generated in 0.0791 seconds.